<?xml version="1.0" encoding="UTF-8" standalone="no" ?>
<gpx xmlns="http://www.topografix.com/GPX/1/1" xmlns:xsi="http://www.w3.org/2001/XMLSchema-instance" xsi:schemaLocation="http://www.topografix.com/GPX/1/1 http://www.topografix.com/GPX/1/1/gpx.xsd" version="1.1" creator="VisuGPX - https://www.visugpx.com">
  <metadata>
    <name>Forêt de Saint Germain - Parking étoile des Pétrons</name>
    <desc><![CDATA[Parcours de 9km]]></desc>
  </metadata>
  <trk>
    <name><![CDATA[Etang du Corra -Rte des pavillons_R7]]></name>
    <trkseg>
      <trkpt lat="48.96113" lon="2.12789">
        <ele>-23.55</ele>
        <time>2023-04-19T07:25:37Z</time>
      </trkpt>
      <trkpt lat="48.96122" lon="2.128">
        <ele>-22.8</ele>
        <time>2023-04-19T07:25:50Z</time>
      </trkpt>
      <trkpt lat="48.96129" lon="2.12804">
        <ele>-22.1</ele>
        <time>2023-04-19T07:26:04Z</time>
      </trkpt>
      <trkpt lat="48.9613" lon="2.12805">
        <ele>-22.11</ele>
        <time>2023-04-19T07:26:05Z</time>
      </trkpt>
      <trkpt lat="48.9614" lon="2.12803">
        <ele>-22.38</ele>
        <time>2023-04-19T07:26:16Z</time>
      </trkpt>
      <trkpt lat="48.96147" lon="2.12792">
        <ele>-21.7</ele>
        <time>2023-04-19T07:26:23Z</time>
      </trkpt>
      <trkpt lat="48.96149" lon="2.12788">
        <ele>-21.64</ele>
        <time>2023-04-19T07:26:25Z</time>
      </trkpt>
      <trkpt lat="48.96158" lon="2.1278">
        <ele>-21.56</ele>
        <time>2023-04-19T07:26:35Z</time>
      </trkpt>
      <trkpt lat="48.96171" lon="2.12776">
        <ele>-20.85</ele>
        <time>2023-04-19T07:26:49Z</time>
      </trkpt>
      <trkpt lat="48.96178" lon="2.12778">
        <ele>-20.87</ele>
        <time>2023-04-19T07:26:55Z</time>
      </trkpt>
      <trkpt lat="48.96197" lon="2.12773">
        <ele>-20.82</ele>
        <time>2023-04-19T07:27:07Z</time>
      </trkpt>
      <trkpt lat="48.96209" lon="2.12767">
        <ele>-20.47</ele>
        <time>2023-04-19T07:27:14Z</time>
      </trkpt>
      <trkpt lat="48.96224" lon="2.12764">
        <ele>-19.27</ele>
        <time>2023-04-19T07:27:25Z</time>
      </trkpt>
      <trkpt lat="48.96238" lon="2.12762">
        <ele>-19.51</ele>
        <time>2023-04-19T07:27:35Z</time>
      </trkpt>
      <trkpt lat="48.96244" lon="2.12762">
        <ele>-19.27</ele>
        <time>2023-04-19T07:27:41Z</time>
      </trkpt>
      <trkpt lat="48.96258" lon="2.12756">
        <ele>-18.54</ele>
        <time>2023-04-19T07:27:54Z</time>
      </trkpt>
      <trkpt lat="48.96273" lon="2.12746">
        <ele>-18.43</ele>
        <time>2023-04-19T07:28:08Z</time>
      </trkpt>
      <trkpt lat="48.96288" lon="2.12741">
        <ele>-18.7</ele>
        <time>2023-04-19T07:28:21Z</time>
      </trkpt>
      <trkpt lat="48.96311" lon="2.12737">
        <ele>-18.95</ele>
        <time>2023-04-19T07:28:37Z</time>
      </trkpt>
      <trkpt lat="48.96335" lon="2.1273">
        <ele>-18.64</ele>
        <time>2023-04-19T07:28:52Z</time>
      </trkpt>
      <trkpt lat="48.96345" lon="2.12729">
        <ele>-19.12</ele>
        <time>2023-04-19T07:29:01Z</time>
      </trkpt>
      <trkpt lat="48.96367" lon="2.12725">
        <ele>-18.29</ele>
        <time>2023-04-19T07:29:16Z</time>
      </trkpt>
      <trkpt lat="48.96392" lon="2.12717">
        <ele>-18.12</ele>
        <time>2023-04-19T07:29:34Z</time>
      </trkpt>
      <trkpt lat="48.96408" lon="2.12713">
        <ele>-17.81</ele>
        <time>2023-04-19T07:29:47Z</time>
      </trkpt>
      <trkpt lat="48.96431" lon="2.12706">
        <ele>-17.86</ele>
        <time>2023-04-19T07:30:02Z</time>
      </trkpt>
      <trkpt lat="48.9645" lon="2.12702">
        <ele>-18.26</ele>
        <time>2023-04-19T07:30:15Z</time>
      </trkpt>
      <trkpt lat="48.96457" lon="2.127">
        <ele>-17.97</ele>
        <time>2023-04-19T07:30:20Z</time>
      </trkpt>
      <trkpt lat="48.96465" lon="2.12697">
        <ele>-17.76</ele>
        <time>2023-04-19T07:30:25Z</time>
      </trkpt>
      <trkpt lat="48.96478" lon="2.12692">
        <ele>-18.06</ele>
        <time>2023-04-19T07:30:33Z</time>
      </trkpt>
      <trkpt lat="48.9649" lon="2.12687">
        <ele>-18.22</ele>
        <time>2023-04-19T07:30:43Z</time>
      </trkpt>
      <trkpt lat="48.96495" lon="2.12687">
        <ele>-18.11</ele>
        <time>2023-04-19T07:30:47Z</time>
      </trkpt>
      <trkpt lat="48.96506" lon="2.12683">
        <ele>-17.81</ele>
        <time>2023-04-19T07:30:55Z</time>
      </trkpt>
      <trkpt lat="48.96511" lon="2.12682">
        <ele>-17.9</ele>
        <time>2023-04-19T07:30:58Z</time>
      </trkpt>
      <trkpt lat="48.96521" lon="2.12679">
        <ele>-18.26</ele>
        <time>2023-04-19T07:31:05Z</time>
      </trkpt>
      <trkpt lat="48.96535" lon="2.12673">
        <ele>-17.47</ele>
        <time>2023-04-19T07:31:15Z</time>
      </trkpt>
      <trkpt lat="48.96552" lon="2.12673">
        <ele>-17.63</ele>
        <time>2023-04-19T07:31:27Z</time>
      </trkpt>
      <trkpt lat="48.96554" lon="2.12672">
        <ele>-17.33</ele>
        <time>2023-04-19T07:31:28Z</time>
      </trkpt>
      <trkpt lat="48.96561" lon="2.12674">
        <ele>-17.47</ele>
        <time>2023-04-19T07:31:34Z</time>
      </trkpt>
      <trkpt lat="48.96579" lon="2.12671">
        <ele>-17.23</ele>
        <time>2023-04-19T07:31:45Z</time>
      </trkpt>
      <trkpt lat="48.96595" lon="2.12667">
        <ele>-17.28</ele>
        <time>2023-04-19T07:31:57Z</time>
      </trkpt>
      <trkpt lat="48.96615" lon="2.12662">
        <ele>-17.46</ele>
        <time>2023-04-19T07:32:10Z</time>
      </trkpt>
      <trkpt lat="48.96637" lon="2.12652">
        <ele>-16.56</ele>
        <time>2023-04-19T07:32:25Z</time>
      </trkpt>
      <trkpt lat="48.96654" lon="2.12646">
        <ele>-16.91</ele>
        <time>2023-04-19T07:32:37Z</time>
      </trkpt>
      <trkpt lat="48.9666" lon="2.12647">
        <ele>-16.03</ele>
        <time>2023-04-19T07:32:42Z</time>
      </trkpt>
      <trkpt lat="48.96663" lon="2.12647">
        <ele>-15.99</ele>
        <time>2023-04-19T07:32:44Z</time>
      </trkpt>
      <trkpt lat="48.96666" lon="2.12647">
        <ele>-16.48</ele>
        <time>2023-04-19T07:32:46Z</time>
      </trkpt>
      <trkpt lat="48.96669" lon="2.12647">
        <ele>-16.18</ele>
        <time>2023-04-19T07:32:48Z</time>
      </trkpt>
      <trkpt lat="48.96671" lon="2.12647">
        <ele>-15.87</ele>
        <time>2023-04-19T07:32:49Z</time>
      </trkpt>
      <trkpt lat="48.96672" lon="2.12646">
        <ele>-16.25</ele>
        <time>2023-04-19T07:32:50Z</time>
      </trkpt>
      <trkpt lat="48.96683" lon="2.12644">
        <ele>-15.71</ele>
        <time>2023-04-19T07:33:00Z</time>
      </trkpt>
      <trkpt lat="48.96686" lon="2.12643">
        <ele>-15.93</ele>
        <time>2023-04-19T07:33:02Z</time>
      </trkpt>
      <trkpt lat="48.96688" lon="2.12643">
        <ele>-15.65</ele>
        <time>2023-04-19T07:33:03Z</time>
      </trkpt>
      <trkpt lat="48.96689" lon="2.12643">
        <ele>-15.82</ele>
        <time>2023-04-19T07:33:04Z</time>
      </trkpt>
      <trkpt lat="48.9669" lon="2.12643">
        <ele>-15.79</ele>
        <time>2023-04-19T07:33:05Z</time>
      </trkpt>
      <trkpt lat="48.96709" lon="2.12636">
        <ele>-15.78</ele>
        <time>2023-04-19T07:33:20Z</time>
      </trkpt>
      <trkpt lat="48.96727" lon="2.12628">
        <ele>-16.08</ele>
        <time>2023-04-19T07:33:29Z</time>
      </trkpt>
      <trkpt lat="48.96738" lon="2.12625">
        <ele>-15.45</ele>
        <time>2023-04-19T07:33:38Z</time>
      </trkpt>
      <trkpt lat="48.96759" lon="2.12622">
        <ele>-15.38</ele>
        <time>2023-04-19T07:33:52Z</time>
      </trkpt>
      <trkpt lat="48.96775" lon="2.12619">
        <ele>-15.7</ele>
        <time>2023-04-19T07:34:03Z</time>
      </trkpt>
      <trkpt lat="48.96785" lon="2.12616">
        <ele>-15.16</ele>
        <time>2023-04-19T07:34:09Z</time>
      </trkpt>
      <trkpt lat="48.96789" lon="2.12615">
        <ele>-14.87</ele>
        <time>2023-04-19T07:34:12Z</time>
      </trkpt>
      <trkpt lat="48.96791" lon="2.12615">
        <ele>-14.92</ele>
        <time>2023-04-19T07:34:13Z</time>
      </trkpt>
      <trkpt lat="48.96793" lon="2.12614">
        <ele>-14.68</ele>
        <time>2023-04-19T07:34:14Z</time>
      </trkpt>
      <trkpt lat="48.96805" lon="2.1261">
        <ele>-14.86</ele>
        <time>2023-04-19T07:34:24Z</time>
      </trkpt>
      <trkpt lat="48.96807" lon="2.12609">
        <ele>-14.56</ele>
        <time>2023-04-19T07:34:25Z</time>
      </trkpt>
      <trkpt lat="48.96809" lon="2.12608">
        <ele>-14.31</ele>
        <time>2023-04-19T07:34:26Z</time>
      </trkpt>
      <trkpt lat="48.9681" lon="2.12608">
        <ele>-14.6</ele>
        <time>2023-04-19T07:34:27Z</time>
      </trkpt>
      <trkpt lat="48.96824" lon="2.12605">
        <ele>-14.52</ele>
        <time>2023-04-19T07:34:37Z</time>
      </trkpt>
      <trkpt lat="48.96826" lon="2.12606">
        <ele>-14.44</ele>
        <time>2023-04-19T07:34:38Z</time>
      </trkpt>
      <trkpt lat="48.96833" lon="2.12605">
        <ele>-15.08</ele>
        <time>2023-04-19T07:34:42Z</time>
      </trkpt>
      <trkpt lat="48.96836" lon="2.12605">
        <ele>-14.5</ele>
        <time>2023-04-19T07:34:43Z</time>
      </trkpt>
      <trkpt lat="48.96838" lon="2.12605">
        <ele>-14.65</ele>
        <time>2023-04-19T07:34:44Z</time>
      </trkpt>
      <trkpt lat="48.9684" lon="2.12605">
        <ele>-14.46</ele>
        <time>2023-04-19T07:34:45Z</time>
      </trkpt>
      <trkpt lat="48.96842" lon="2.12604">
        <ele>-14.53</ele>
        <time>2023-04-19T07:34:46Z</time>
      </trkpt>
      <trkpt lat="48.96847" lon="2.12604">
        <ele>-14.52</ele>
        <time>2023-04-19T07:34:48Z</time>
      </trkpt>
      <trkpt lat="48.96848" lon="2.12605">
        <ele>-14.85</ele>
        <time>2023-04-19T07:34:49Z</time>
      </trkpt>
      <trkpt lat="48.9685" lon="2.12605">
        <ele>-14.62</ele>
        <time>2023-04-19T07:34:50Z</time>
      </trkpt>
      <trkpt lat="48.96852" lon="2.12605">
        <ele>-14.67</ele>
        <time>2023-04-19T07:34:51Z</time>
      </trkpt>
      <trkpt lat="48.96854" lon="2.12605">
        <ele>-14.82</ele>
        <time>2023-04-19T07:34:52Z</time>
      </trkpt>
      <trkpt lat="48.96855" lon="2.12604">
        <ele>-14.56</ele>
        <time>2023-04-19T07:34:53Z</time>
      </trkpt>
      <trkpt lat="48.96858" lon="2.12602">
        <ele>-13.99</ele>
        <time>2023-04-19T07:35:04Z</time>
      </trkpt>
      <trkpt lat="48.9686" lon="2.12603">
        <ele>-13.51</ele>
        <time>2023-04-19T07:35:16Z</time>
      </trkpt>
      <trkpt lat="48.9686" lon="2.12605">
        <ele>-12.16</ele>
        <time>2023-04-19T07:35:43Z</time>
      </trkpt>
      <trkpt lat="48.9686" lon="2.12602">
        <ele>-11.63</ele>
        <time>2023-04-19T07:36:11Z</time>
      </trkpt>
      <trkpt lat="48.96863" lon="2.12598">
        <ele>-11</ele>
        <time>2023-04-19T07:36:27Z</time>
      </trkpt>
      <trkpt lat="48.96859" lon="2.12599">
        <ele>-11</ele>
        <time>2023-04-19T07:36:53Z</time>
      </trkpt>
      <trkpt lat="48.96857" lon="2.12601">
        <ele>-10.37</ele>
        <time>2023-04-19T07:37:14Z</time>
      </trkpt>
      <trkpt lat="48.96853" lon="2.12602">
        <ele>-9.41</ele>
        <time>2023-04-19T07:37:37Z</time>
      </trkpt>
      <trkpt lat="48.96854" lon="2.12606">
        <ele>-9.32</ele>
        <time>2023-04-19T07:37:53Z</time>
      </trkpt>
      <trkpt lat="48.96854" lon="2.12607">
        <ele>-8.63</ele>
        <time>2023-04-19T07:38:12Z</time>
      </trkpt>
      <trkpt lat="48.96853" lon="2.12604">
        <ele>-7.77</ele>
        <time>2023-04-19T07:38:28Z</time>
      </trkpt>
      <trkpt lat="48.96855" lon="2.12598">
        <ele>-8.12</ele>
        <time>2023-04-19T07:38:43Z</time>
      </trkpt>
      <trkpt lat="48.96854" lon="2.12601">
        <ele>-6.64</ele>
        <time>2023-04-19T07:39:00Z</time>
      </trkpt>
      <trkpt lat="48.96852" lon="2.12602">
        <ele>-6.87</ele>
        <time>2023-04-19T07:39:20Z</time>
      </trkpt>
      <trkpt lat="48.96853" lon="2.126">
        <ele>-6.08</ele>
        <time>2023-04-19T07:39:38Z</time>
      </trkpt>
      <trkpt lat="48.96855" lon="2.126">
        <ele>-5.91</ele>
        <time>2023-04-19T07:39:52Z</time>
      </trkpt>
      <trkpt lat="48.96854" lon="2.12596">
        <ele>-5.23</ele>
        <time>2023-04-19T07:40:20Z</time>
      </trkpt>
      <trkpt lat="48.96855" lon="2.12597">
        <ele>-4.6</ele>
        <time>2023-04-19T07:40:36Z</time>
      </trkpt>
      <trkpt lat="48.96855" lon="2.12598">
        <ele>-5.02</ele>
        <time>2023-04-19T07:40:55Z</time>
      </trkpt>
      <trkpt lat="48.96856" lon="2.12603">
        <ele>-4.34</ele>
        <time>2023-04-19T07:41:14Z</time>
      </trkpt>
      <trkpt lat="48.96856" lon="2.12601">
        <ele>-3.78</ele>
        <time>2023-04-19T07:41:37Z</time>
      </trkpt>
      <trkpt lat="48.96856" lon="2.12602">
        <ele>-3</ele>
        <time>2023-04-19T07:42:00Z</time>
      </trkpt>
      <trkpt lat="48.96858" lon="2.12601">
        <ele>-3.35</ele>
        <time>2023-04-19T07:42:26Z</time>
      </trkpt>
      <trkpt lat="48.96859" lon="2.12596">
        <ele>-3.19</ele>
        <time>2023-04-19T07:42:40Z</time>
      </trkpt>
      <trkpt lat="48.96859" lon="2.12594">
        <ele>-3.53</ele>
        <time>2023-04-19T07:42:41Z</time>
      </trkpt>
      <trkpt lat="48.96859" lon="2.12592">
        <ele>-3.16</ele>
        <time>2023-04-19T07:42:42Z</time>
      </trkpt>
      <trkpt lat="48.96859" lon="2.1259">
        <ele>-3.25</ele>
        <time>2023-04-19T07:42:43Z</time>
      </trkpt>
      <trkpt lat="48.96859" lon="2.12588">
        <ele>-2.84</ele>
        <time>2023-04-19T07:42:44Z</time>
      </trkpt>
      <trkpt lat="48.9686" lon="2.12587">
        <ele>-2.68</ele>
        <time>2023-04-19T07:42:45Z</time>
      </trkpt>
      <trkpt lat="48.9686" lon="2.12585">
        <ele>-2.52</ele>
        <time>2023-04-19T07:42:46Z</time>
      </trkpt>
      <trkpt lat="48.9686" lon="2.12583">
        <ele>-2.32</ele>
        <time>2023-04-19T07:42:47Z</time>
      </trkpt>
      <trkpt lat="48.96866" lon="2.12574">
        <ele>-2.76</ele>
        <time>2023-04-19T07:42:54Z</time>
      </trkpt>
      <trkpt lat="48.96871" lon="2.12563">
        <ele>-2.35</ele>
        <time>2023-04-19T07:43:05Z</time>
      </trkpt>
      <trkpt lat="48.96873" lon="2.12561">
        <ele>-2.5</ele>
        <time>2023-04-19T07:43:07Z</time>
      </trkpt>
      <trkpt lat="48.96874" lon="2.1256">
        <ele>-2.25</ele>
        <time>2023-04-19T07:43:08Z</time>
      </trkpt>
      <trkpt lat="48.96874" lon="2.12558">
        <ele>-2.83</ele>
        <time>2023-04-19T07:43:09Z</time>
      </trkpt>
      <trkpt lat="48.96875" lon="2.12556">
        <ele>-2.62</ele>
        <time>2023-04-19T07:43:10Z</time>
      </trkpt>
      <trkpt lat="48.96876" lon="2.12553">
        <ele>-2.64</ele>
        <time>2023-04-19T07:43:12Z</time>
      </trkpt>
      <trkpt lat="48.9688" lon="2.12545">
        <ele>-1.97</ele>
        <time>2023-04-19T07:43:17Z</time>
      </trkpt>
      <trkpt lat="48.96881" lon="2.12543">
        <ele>-2.35</ele>
        <time>2023-04-19T07:43:18Z</time>
      </trkpt>
      <trkpt lat="48.96886" lon="2.12533">
        <ele>-2.3</ele>
        <time>2023-04-19T07:43:25Z</time>
      </trkpt>
      <trkpt lat="48.96887" lon="2.12532">
        <ele>-2.66</ele>
        <time>2023-04-19T07:43:26Z</time>
      </trkpt>
      <trkpt lat="48.96888" lon="2.12531">
        <ele>-2.06</ele>
        <time>2023-04-19T07:43:27Z</time>
      </trkpt>
      <trkpt lat="48.96892" lon="2.12527">
        <ele>-1.78</ele>
        <time>2023-04-19T07:43:30Z</time>
      </trkpt>
      <trkpt lat="48.96897" lon="2.12523">
        <ele>-2.05</ele>
        <time>2023-04-19T07:43:34Z</time>
      </trkpt>
      <trkpt lat="48.96898" lon="2.12521">
        <ele>-1.85</ele>
        <time>2023-04-19T07:43:35Z</time>
      </trkpt>
      <trkpt lat="48.96908" lon="2.12508">
        <ele>-1.05</ele>
        <time>2023-04-19T07:43:45Z</time>
      </trkpt>
      <trkpt lat="48.9691" lon="2.12503">
        <ele>-1.16</ele>
        <time>2023-04-19T07:43:48Z</time>
      </trkpt>
      <trkpt lat="48.96911" lon="2.12501">
        <ele>-1.45</ele>
        <time>2023-04-19T07:43:49Z</time>
      </trkpt>
      <trkpt lat="48.96912" lon="2.12499">
        <ele>-1.32</ele>
        <time>2023-04-19T07:43:50Z</time>
      </trkpt>
      <trkpt lat="48.96913" lon="2.12497">
        <ele>-1.03</ele>
        <time>2023-04-19T07:43:51Z</time>
      </trkpt>
      <trkpt lat="48.96914" lon="2.12495">
        <ele>-1.04</ele>
        <time>2023-04-19T07:43:52Z</time>
      </trkpt>
      <trkpt lat="48.96915" lon="2.12493">
        <ele>-1.01</ele>
        <time>2023-04-19T07:43:53Z</time>
      </trkpt>
      <trkpt lat="48.96916" lon="2.12491">
        <ele>-1.18</ele>
        <time>2023-04-19T07:43:54Z</time>
      </trkpt>
      <trkpt lat="48.96917" lon="2.1249">
        <ele>-1.51</ele>
        <time>2023-04-19T07:43:55Z</time>
      </trkpt>
      <trkpt lat="48.96923" lon="2.12478">
        <ele>-1.2</ele>
        <time>2023-04-19T07:44:03Z</time>
      </trkpt>
      <trkpt lat="48.96924" lon="2.12477">
        <ele>-1.24</ele>
        <time>2023-04-19T07:44:04Z</time>
      </trkpt>
      <trkpt lat="48.96925" lon="2.12475">
        <ele>-0.76</ele>
        <time>2023-04-19T07:44:05Z</time>
      </trkpt>
      <trkpt lat="48.96926" lon="2.12474">
        <ele>-0.92</ele>
        <time>2023-04-19T07:44:06Z</time>
      </trkpt>
      <trkpt lat="48.96928" lon="2.12473">
        <ele>-0.79</ele>
        <time>2023-04-19T07:44:07Z</time>
      </trkpt>
      <trkpt lat="48.96929" lon="2.12472">
        <ele>-0.8</ele>
        <time>2023-04-19T07:44:08Z</time>
      </trkpt>
      <trkpt lat="48.9693" lon="2.1247">
        <ele>-0.67</ele>
        <time>2023-04-19T07:44:09Z</time>
      </trkpt>
      <trkpt lat="48.96931" lon="2.12469">
        <ele>-1.04</ele>
        <time>2023-04-19T07:44:10Z</time>
      </trkpt>
      <trkpt lat="48.96932" lon="2.12467">
        <ele>-1.33</ele>
        <time>2023-04-19T07:44:11Z</time>
      </trkpt>
      <trkpt lat="48.96933" lon="2.12465">
        <ele>-0.71</ele>
        <time>2023-04-19T07:44:12Z</time>
      </trkpt>
      <trkpt lat="48.96935" lon="2.12463">
        <ele>-1.11</ele>
        <time>2023-04-19T07:44:13Z</time>
      </trkpt>
      <trkpt lat="48.96937" lon="2.12459">
        <ele>-0.91</ele>
        <time>2023-04-19T07:44:16Z</time>
      </trkpt>
      <trkpt lat="48.96938" lon="2.12457">
        <ele>-1.51</ele>
        <time>2023-04-19T07:44:17Z</time>
      </trkpt>
      <trkpt lat="48.9694" lon="2.12456">
        <ele>-1.1</ele>
        <time>2023-04-19T07:44:18Z</time>
      </trkpt>
      <trkpt lat="48.96941" lon="2.12454">
        <ele>-1.17</ele>
        <time>2023-04-19T07:44:19Z</time>
      </trkpt>
      <trkpt lat="48.96942" lon="2.12453">
        <ele>-1.46</ele>
        <time>2023-04-19T07:44:20Z</time>
      </trkpt>
      <trkpt lat="48.96943" lon="2.1245">
        <ele>-1.27</ele>
        <time>2023-04-19T07:44:22Z</time>
      </trkpt>
      <trkpt lat="48.96951" lon="2.1244">
        <ele>-1.42</ele>
        <time>2023-04-19T07:44:28Z</time>
      </trkpt>
      <trkpt lat="48.96952" lon="2.12438">
        <ele>-1.61</ele>
        <time>2023-04-19T07:44:29Z</time>
      </trkpt>
      <trkpt lat="48.96954" lon="2.12437">
        <ele>-1.48</ele>
        <time>2023-04-19T07:44:30Z</time>
      </trkpt>
      <trkpt lat="48.96955" lon="2.12436">
        <ele>-1.37</ele>
        <time>2023-04-19T07:44:31Z</time>
      </trkpt>
      <trkpt lat="48.96956" lon="2.12434">
        <ele>-1.17</ele>
        <time>2023-04-19T07:44:32Z</time>
      </trkpt>
      <trkpt lat="48.96957" lon="2.12432">
        <ele>-1.71</ele>
        <time>2023-04-19T07:44:33Z</time>
      </trkpt>
      <trkpt lat="48.96958" lon="2.1243">
        <ele>-1</ele>
        <time>2023-04-19T07:44:34Z</time>
      </trkpt>
      <trkpt lat="48.96959" lon="2.12428">
        <ele>-1.7</ele>
        <time>2023-04-19T07:44:35Z</time>
      </trkpt>
      <trkpt lat="48.96961" lon="2.12426">
        <ele>-1.14</ele>
        <time>2023-04-19T07:44:36Z</time>
      </trkpt>
      <trkpt lat="48.96962" lon="2.12425">
        <ele>-0.86</ele>
        <time>2023-04-19T07:44:37Z</time>
      </trkpt>
      <trkpt lat="48.96963" lon="2.12423">
        <ele>-0.73</ele>
        <time>2023-04-19T07:44:38Z</time>
      </trkpt>
      <trkpt lat="48.96964" lon="2.12422">
        <ele>-1.33</ele>
        <time>2023-04-19T07:44:39Z</time>
      </trkpt>
      <trkpt lat="48.96965" lon="2.1242">
        <ele>-1.16</ele>
        <time>2023-04-19T07:44:40Z</time>
      </trkpt>
      <trkpt lat="48.96965" lon="2.12418">
        <ele>-0.79</ele>
        <time>2023-04-19T07:44:41Z</time>
      </trkpt>
      <trkpt lat="48.9697" lon="2.12405">
        <ele>-1.21</ele>
        <time>2023-04-19T07:44:48Z</time>
      </trkpt>
      <trkpt lat="48.96973" lon="2.12397">
        <ele>-0.84</ele>
        <time>2023-04-19T07:44:53Z</time>
      </trkpt>
      <trkpt lat="48.96974" lon="2.12396">
        <ele>-0.86</ele>
        <time>2023-04-19T07:44:54Z</time>
      </trkpt>
      <trkpt lat="48.96974" lon="2.12394">
        <ele>-1.2</ele>
        <time>2023-04-19T07:44:55Z</time>
      </trkpt>
      <trkpt lat="48.96975" lon="2.12392">
        <ele>-1.22</ele>
        <time>2023-04-19T07:44:56Z</time>
      </trkpt>
      <trkpt lat="48.96976" lon="2.12388">
        <ele>-0.85</ele>
        <time>2023-04-19T07:44:58Z</time>
      </trkpt>
      <trkpt lat="48.96978" lon="2.12385">
        <ele>-1.27</ele>
        <time>2023-04-19T07:45:00Z</time>
      </trkpt>
      <trkpt lat="48.9698" lon="2.1238">
        <ele>-1.53</ele>
        <time>2023-04-19T07:45:03Z</time>
      </trkpt>
      <trkpt lat="48.96983" lon="2.12373">
        <ele>-1.67</ele>
        <time>2023-04-19T07:45:07Z</time>
      </trkpt>
      <trkpt lat="48.96988" lon="2.12369">
        <ele>-1.37</ele>
        <time>2023-04-19T07:45:10Z</time>
      </trkpt>
      <trkpt lat="48.96989" lon="2.12366">
        <ele>-1.28</ele>
        <time>2023-04-19T07:45:11Z</time>
      </trkpt>
      <trkpt lat="48.96991" lon="2.12364">
        <ele>-1.56</ele>
        <time>2023-04-19T07:45:12Z</time>
      </trkpt>
      <trkpt lat="48.96993" lon="2.12361">
        <ele>-1.54</ele>
        <time>2023-04-19T07:45:13Z</time>
      </trkpt>
      <trkpt lat="48.97" lon="2.12346">
        <ele>-1.62</ele>
        <time>2023-04-19T07:45:22Z</time>
      </trkpt>
      <trkpt lat="48.97001" lon="2.12344">
        <ele>-1.67</ele>
        <time>2023-04-19T07:45:24Z</time>
      </trkpt>
      <trkpt lat="48.97002" lon="2.12343">
        <ele>-1.48</ele>
        <time>2023-04-19T07:45:25Z</time>
      </trkpt>
      <trkpt lat="48.97003" lon="2.12342">
        <ele>-1.55</ele>
        <time>2023-04-19T07:45:26Z</time>
      </trkpt>
      <trkpt lat="48.97005" lon="2.12339">
        <ele>-1.43</ele>
        <time>2023-04-19T07:45:27Z</time>
      </trkpt>
      <trkpt lat="48.97007" lon="2.12338">
        <ele>-1.51</ele>
        <time>2023-04-19T07:45:28Z</time>
      </trkpt>
      <trkpt lat="48.97009" lon="2.12336">
        <ele>-1.52</ele>
        <time>2023-04-19T07:45:29Z</time>
      </trkpt>
      <trkpt lat="48.97013" lon="2.12325">
        <ele>-1.23</ele>
        <time>2023-04-19T07:45:34Z</time>
      </trkpt>
      <trkpt lat="48.97016" lon="2.1232">
        <ele>-1.22</ele>
        <time>2023-04-19T07:45:37Z</time>
      </trkpt>
      <trkpt lat="48.97017" lon="2.12318">
        <ele>-1.4</ele>
        <time>2023-04-19T07:45:38Z</time>
      </trkpt>
      <trkpt lat="48.97017" lon="2.12316">
        <ele>-1.09</ele>
        <time>2023-04-19T07:45:39Z</time>
      </trkpt>
      <trkpt lat="48.97021" lon="2.12305">
        <ele>-1.35</ele>
        <time>2023-04-19T07:45:46Z</time>
      </trkpt>
      <trkpt lat="48.97022" lon="2.12303">
        <ele>-1.5</ele>
        <time>2023-04-19T07:45:47Z</time>
      </trkpt>
      <trkpt lat="48.97033" lon="2.12292">
        <ele>-1.45</ele>
        <time>2023-04-19T07:45:54Z</time>
      </trkpt>
      <trkpt lat="48.97033" lon="2.1229">
        <ele>-1.6</ele>
        <time>2023-04-19T07:45:55Z</time>
      </trkpt>
      <trkpt lat="48.97034" lon="2.12288">
        <ele>-1.29</ele>
        <time>2023-04-19T07:45:56Z</time>
      </trkpt>
      <trkpt lat="48.97035" lon="2.12287">
        <ele>-1.34</ele>
        <time>2023-04-19T07:45:57Z</time>
      </trkpt>
      <trkpt lat="48.97036" lon="2.12283">
        <ele>-1.83</ele>
        <time>2023-04-19T07:45:59Z</time>
      </trkpt>
      <trkpt lat="48.97037" lon="2.12282">
        <ele>-1.4</ele>
        <time>2023-04-19T07:46:00Z</time>
      </trkpt>
      <trkpt lat="48.97038" lon="2.1228">
        <ele>-1.34</ele>
        <time>2023-04-19T07:46:01Z</time>
      </trkpt>
      <trkpt lat="48.97043" lon="2.12267">
        <ele>-1.57</ele>
        <time>2023-04-19T07:46:07Z</time>
      </trkpt>
      <trkpt lat="48.97045" lon="2.12262">
        <ele>-1.69</ele>
        <time>2023-04-19T07:46:09Z</time>
      </trkpt>
      <trkpt lat="48.97046" lon="2.1226">
        <ele>-0.85</ele>
        <time>2023-04-19T07:46:10Z</time>
      </trkpt>
      <trkpt lat="48.97048" lon="2.12258">
        <ele>-1.01</ele>
        <time>2023-04-19T07:46:11Z</time>
      </trkpt>
      <trkpt lat="48.97056" lon="2.12245">
        <ele>-1.43</ele>
        <time>2023-04-19T07:46:18Z</time>
      </trkpt>
      <trkpt lat="48.97058" lon="2.12241">
        <ele>-1.59</ele>
        <time>2023-04-19T07:46:20Z</time>
      </trkpt>
      <trkpt lat="48.9706" lon="2.1224">
        <ele>-1.06</ele>
        <time>2023-04-19T07:46:21Z</time>
      </trkpt>
      <trkpt lat="48.97061" lon="2.12237">
        <ele>-1.43</ele>
        <time>2023-04-19T07:46:22Z</time>
      </trkpt>
      <trkpt lat="48.97066" lon="2.12232">
        <ele>-1.84</ele>
        <time>2023-04-19T07:46:26Z</time>
      </trkpt>
      <trkpt lat="48.97067" lon="2.1223">
        <ele>-1.13</ele>
        <time>2023-04-19T07:46:27Z</time>
      </trkpt>
      <trkpt lat="48.97068" lon="2.12228">
        <ele>-1.19</ele>
        <time>2023-04-19T07:46:28Z</time>
      </trkpt>
      <trkpt lat="48.97069" lon="2.12227">
        <ele>-1.09</ele>
        <time>2023-04-19T07:46:29Z</time>
      </trkpt>
      <trkpt lat="48.97071" lon="2.12226">
        <ele>-1.1</ele>
        <time>2023-04-19T07:46:30Z</time>
      </trkpt>
      <trkpt lat="48.97076" lon="2.12218">
        <ele>-1.43</ele>
        <time>2023-04-19T07:46:35Z</time>
      </trkpt>
      <trkpt lat="48.97077" lon="2.12216">
        <ele>-1.22</ele>
        <time>2023-04-19T07:46:36Z</time>
      </trkpt>
      <trkpt lat="48.97081" lon="2.12212">
        <ele>-1.05</ele>
        <time>2023-04-19T07:46:40Z</time>
      </trkpt>
      <trkpt lat="48.97083" lon="2.1221">
        <ele>-1.02</ele>
        <time>2023-04-19T07:46:41Z</time>
      </trkpt>
      <trkpt lat="48.97084" lon="2.12209">
        <ele>-1.43</ele>
        <time>2023-04-19T07:46:42Z</time>
      </trkpt>
      <trkpt lat="48.97085" lon="2.12207">
        <ele>-1.33</ele>
        <time>2023-04-19T07:46:43Z</time>
      </trkpt>
      <trkpt lat="48.97086" lon="2.12205">
        <ele>-1</ele>
        <time>2023-04-19T07:46:44Z</time>
      </trkpt>
      <trkpt lat="48.97088" lon="2.12203">
        <ele>-1.29</ele>
        <time>2023-04-19T07:46:45Z</time>
      </trkpt>
      <trkpt lat="48.97089" lon="2.12201">
        <ele>-1.37</ele>
        <time>2023-04-19T07:46:46Z</time>
      </trkpt>
      <trkpt lat="48.9709" lon="2.122">
        <ele>-1.17</ele>
        <time>2023-04-19T07:46:47Z</time>
      </trkpt>
      <trkpt lat="48.97093" lon="2.12192">
        <ele>-1.28</ele>
        <time>2023-04-19T07:46:51Z</time>
      </trkpt>
      <trkpt lat="48.97095" lon="2.1219">
        <ele>-1.65</ele>
        <time>2023-04-19T07:46:52Z</time>
      </trkpt>
      <trkpt lat="48.97096" lon="2.12188">
        <ele>-1.38</ele>
        <time>2023-04-19T07:46:53Z</time>
      </trkpt>
      <trkpt lat="48.97097" lon="2.12186">
        <ele>-1.25</ele>
        <time>2023-04-19T07:46:54Z</time>
      </trkpt>
      <trkpt lat="48.97098" lon="2.12184">
        <ele>-1.35</ele>
        <time>2023-04-19T07:46:55Z</time>
      </trkpt>
      <trkpt lat="48.971" lon="2.12183">
        <ele>-1.53</ele>
        <time>2023-04-19T07:46:56Z</time>
      </trkpt>
      <trkpt lat="48.97101" lon="2.12181">
        <ele>-1.41</ele>
        <time>2023-04-19T07:46:57Z</time>
      </trkpt>
      <trkpt lat="48.97107" lon="2.12173">
        <ele>-1.68</ele>
        <time>2023-04-19T07:47:03Z</time>
      </trkpt>
      <trkpt lat="48.97111" lon="2.12168">
        <ele>-1.25</ele>
        <time>2023-04-19T07:47:07Z</time>
      </trkpt>
      <trkpt lat="48.97112" lon="2.12166">
        <ele>-1.22</ele>
        <time>2023-04-19T07:47:08Z</time>
      </trkpt>
      <trkpt lat="48.97113" lon="2.12165">
        <ele>-1.26</ele>
        <time>2023-04-19T07:47:09Z</time>
      </trkpt>
      <trkpt lat="48.97122" lon="2.12149">
        <ele>-1.43</ele>
        <time>2023-04-19T07:47:19Z</time>
      </trkpt>
      <trkpt lat="48.97128" lon="2.12141">
        <ele>-1.16</ele>
        <time>2023-04-19T07:47:25Z</time>
      </trkpt>
      <trkpt lat="48.97128" lon="2.12139">
        <ele>-1.69</ele>
        <time>2023-04-19T07:47:26Z</time>
      </trkpt>
      <trkpt lat="48.97134" lon="2.12127">
        <ele>-0.77</ele>
        <time>2023-04-19T07:47:32Z</time>
      </trkpt>
      <trkpt lat="48.97135" lon="2.12124">
        <ele>-1.25</ele>
        <time>2023-04-19T07:47:33Z</time>
      </trkpt>
      <trkpt lat="48.97142" lon="2.12106">
        <ele>-1.15</ele>
        <time>2023-04-19T07:47:41Z</time>
      </trkpt>
      <trkpt lat="48.97143" lon="2.12104">
        <ele>-0.91</ele>
        <time>2023-04-19T07:47:42Z</time>
      </trkpt>
      <trkpt lat="48.97144" lon="2.12102">
        <ele>-1.29</ele>
        <time>2023-04-19T07:47:43Z</time>
      </trkpt>
      <trkpt lat="48.97146" lon="2.12101">
        <ele>-1.03</ele>
        <time>2023-04-19T07:47:44Z</time>
      </trkpt>
      <trkpt lat="48.97147" lon="2.12099">
        <ele>-1.12</ele>
        <time>2023-04-19T07:47:45Z</time>
      </trkpt>
      <trkpt lat="48.97148" lon="2.12096">
        <ele>-1.31</ele>
        <time>2023-04-19T07:47:47Z</time>
      </trkpt>
      <trkpt lat="48.9715" lon="2.12095">
        <ele>-1.29</ele>
        <time>2023-04-19T07:47:48Z</time>
      </trkpt>
      <trkpt lat="48.97151" lon="2.12093">
        <ele>-1.42</ele>
        <time>2023-04-19T07:47:49Z</time>
      </trkpt>
      <trkpt lat="48.97152" lon="2.12091">
        <ele>-1.44</ele>
        <time>2023-04-19T07:47:50Z</time>
      </trkpt>
      <trkpt lat="48.9716" lon="2.12079">
        <ele>-1.52</ele>
        <time>2023-04-19T07:47:59Z</time>
      </trkpt>
      <trkpt lat="48.97161" lon="2.12077">
        <ele>-1.94</ele>
        <time>2023-04-19T07:48:00Z</time>
      </trkpt>
      <trkpt lat="48.97162" lon="2.12076">
        <ele>-1.59</ele>
        <time>2023-04-19T07:48:01Z</time>
      </trkpt>
      <trkpt lat="48.97164" lon="2.12074">
        <ele>-1.42</ele>
        <time>2023-04-19T07:48:02Z</time>
      </trkpt>
      <trkpt lat="48.97165" lon="2.12073">
        <ele>-1.47</ele>
        <time>2023-04-19T07:48:03Z</time>
      </trkpt>
      <trkpt lat="48.97166" lon="2.12072">
        <ele>-1.11</ele>
        <time>2023-04-19T07:48:04Z</time>
      </trkpt>
      <trkpt lat="48.97167" lon="2.1207">
        <ele>-1.39</ele>
        <time>2023-04-19T07:48:05Z</time>
      </trkpt>
      <trkpt lat="48.97178" lon="2.12056">
        <ele>-1.52</ele>
        <time>2023-04-19T07:48:15Z</time>
      </trkpt>
      <trkpt lat="48.97184" lon="2.12037">
        <ele>-1.21</ele>
        <time>2023-04-19T07:48:25Z</time>
      </trkpt>
      <trkpt lat="48.97184" lon="2.12025">
        <ele>-1.51</ele>
        <time>2023-04-19T07:48:30Z</time>
      </trkpt>
      <trkpt lat="48.97184" lon="2.12024">
        <ele>-1.51</ele>
        <time>2023-04-19T07:48:31Z</time>
      </trkpt>
      <trkpt lat="48.97184" lon="2.12022">
        <ele>-1.71</ele>
        <time>2023-04-19T07:48:32Z</time>
      </trkpt>
      <trkpt lat="48.97183" lon="2.1202">
        <ele>-1.86</ele>
        <time>2023-04-19T07:48:33Z</time>
      </trkpt>
      <trkpt lat="48.97187" lon="2.12004">
        <ele>-2.03</ele>
        <time>2023-04-19T07:48:41Z</time>
      </trkpt>
      <trkpt lat="48.97193" lon="2.11983">
        <ele>-1.31</ele>
        <time>2023-04-19T07:48:54Z</time>
      </trkpt>
      <trkpt lat="48.97196" lon="2.11962">
        <ele>-1.86</ele>
        <time>2023-04-19T07:49:06Z</time>
      </trkpt>
      <trkpt lat="48.97197" lon="2.11952">
        <ele>-1.71</ele>
        <time>2023-04-19T07:49:11Z</time>
      </trkpt>
      <trkpt lat="48.97197" lon="2.11947">
        <ele>-1.78</ele>
        <time>2023-04-19T07:49:13Z</time>
      </trkpt>
      <trkpt lat="48.97205" lon="2.11923">
        <ele>-1.83</ele>
        <time>2023-04-19T07:49:22Z</time>
      </trkpt>
      <trkpt lat="48.97206" lon="2.11919">
        <ele>-1.98</ele>
        <time>2023-04-19T07:49:24Z</time>
      </trkpt>
      <trkpt lat="48.97207" lon="2.11915">
        <ele>-2.32</ele>
        <time>2023-04-19T07:49:26Z</time>
      </trkpt>
      <trkpt lat="48.97209" lon="2.11913">
        <ele>-1.68</ele>
        <time>2023-04-19T07:49:27Z</time>
      </trkpt>
      <trkpt lat="48.9721" lon="2.1191">
        <ele>-1.49</ele>
        <time>2023-04-19T07:49:28Z</time>
      </trkpt>
      <trkpt lat="48.97213" lon="2.11902">
        <ele>-1.77</ele>
        <time>2023-04-19T07:49:32Z</time>
      </trkpt>
      <trkpt lat="48.97213" lon="2.119">
        <ele>-2.54</ele>
        <time>2023-04-19T07:49:33Z</time>
      </trkpt>
      <trkpt lat="48.97213" lon="2.11898">
        <ele>-2.19</ele>
        <time>2023-04-19T07:49:34Z</time>
      </trkpt>
      <trkpt lat="48.97213" lon="2.11894">
        <ele>-1.92</ele>
        <time>2023-04-19T07:49:36Z</time>
      </trkpt>
      <trkpt lat="48.97213" lon="2.1189">
        <ele>-2.04</ele>
        <time>2023-04-19T07:49:38Z</time>
      </trkpt>
      <trkpt lat="48.97213" lon="2.11888">
        <ele>-2.03</ele>
        <time>2023-04-19T07:49:39Z</time>
      </trkpt>
      <trkpt lat="48.97214" lon="2.11885">
        <ele>-1.76</ele>
        <time>2023-04-19T07:49:40Z</time>
      </trkpt>
      <trkpt lat="48.97213" lon="2.11882">
        <ele>-2.03</ele>
        <time>2023-04-19T07:49:41Z</time>
      </trkpt>
      <trkpt lat="48.97215" lon="2.11874">
        <ele>-1.93</ele>
        <time>2023-04-19T07:49:44Z</time>
      </trkpt>
      <trkpt lat="48.97215" lon="2.1187">
        <ele>-1.86</ele>
        <time>2023-04-19T07:49:46Z</time>
      </trkpt>
      <trkpt lat="48.97215" lon="2.11867">
        <ele>-2.07</ele>
        <time>2023-04-19T07:49:47Z</time>
      </trkpt>
      <trkpt lat="48.97218" lon="2.1185">
        <ele>-2.21</ele>
        <time>2023-04-19T07:49:56Z</time>
      </trkpt>
      <trkpt lat="48.97218" lon="2.11847">
        <ele>-2.16</ele>
        <time>2023-04-19T07:49:57Z</time>
      </trkpt>
      <trkpt lat="48.97221" lon="2.11826">
        <ele>-2.31</ele>
        <time>2023-04-19T07:50:05Z</time>
      </trkpt>
      <trkpt lat="48.97221" lon="2.1182">
        <ele>-2.5</ele>
        <time>2023-04-19T07:50:08Z</time>
      </trkpt>
      <trkpt lat="48.97222" lon="2.11818">
        <ele>-1.8</ele>
        <time>2023-04-19T07:50:09Z</time>
      </trkpt>
      <trkpt lat="48.97223" lon="2.11816">
        <ele>-2.58</ele>
        <time>2023-04-19T07:50:10Z</time>
      </trkpt>
      <trkpt lat="48.97224" lon="2.11814">
        <ele>-1.61</ele>
        <time>2023-04-19T07:50:11Z</time>
      </trkpt>
      <trkpt lat="48.97225" lon="2.11812">
        <ele>-2.04</ele>
        <time>2023-04-19T07:50:12Z</time>
      </trkpt>
      <trkpt lat="48.97225" lon="2.11809">
        <ele>-1.79</ele>
        <time>2023-04-19T07:50:13Z</time>
      </trkpt>
      <trkpt lat="48.97228" lon="2.118">
        <ele>-2.09</ele>
        <time>2023-04-19T07:50:17Z</time>
      </trkpt>
      <trkpt lat="48.97229" lon="2.11798">
        <ele>-1.73</ele>
        <time>2023-04-19T07:50:18Z</time>
      </trkpt>
      <trkpt lat="48.97236" lon="2.11773">
        <ele>-2.09</ele>
        <time>2023-04-19T07:50:28Z</time>
      </trkpt>
      <trkpt lat="48.9724" lon="2.11752">
        <ele>-2.29</ele>
        <time>2023-04-19T07:50:38Z</time>
      </trkpt>
      <trkpt lat="48.9724" lon="2.11749">
        <ele>-1.92</ele>
        <time>2023-04-19T07:50:39Z</time>
      </trkpt>
      <trkpt lat="48.9724" lon="2.11747">
        <ele>-2.22</ele>
        <time>2023-04-19T07:50:40Z</time>
      </trkpt>
      <trkpt lat="48.9724" lon="2.11745">
        <ele>-2.02</ele>
        <time>2023-04-19T07:50:41Z</time>
      </trkpt>
      <trkpt lat="48.9724" lon="2.11742">
        <ele>-2.31</ele>
        <time>2023-04-19T07:50:42Z</time>
      </trkpt>
      <trkpt lat="48.9724" lon="2.11739">
        <ele>-1.77</ele>
        <time>2023-04-19T07:50:43Z</time>
      </trkpt>
      <trkpt lat="48.97241" lon="2.11737">
        <ele>-2.12</ele>
        <time>2023-04-19T07:50:44Z</time>
      </trkpt>
      <trkpt lat="48.97241" lon="2.11734">
        <ele>-2.06</ele>
        <time>2023-04-19T07:50:45Z</time>
      </trkpt>
      <trkpt lat="48.97244" lon="2.11723">
        <ele>-1.97</ele>
        <time>2023-04-19T07:50:50Z</time>
      </trkpt>
      <trkpt lat="48.97245" lon="2.1172">
        <ele>-2.06</ele>
        <time>2023-04-19T07:50:51Z</time>
      </trkpt>
      <trkpt lat="48.97252" lon="2.11698">
        <ele>-2.12</ele>
        <time>2023-04-19T07:51:02Z</time>
      </trkpt>
      <trkpt lat="48.97253" lon="2.11681">
        <ele>-2.23</ele>
        <time>2023-04-19T07:51:10Z</time>
      </trkpt>
      <trkpt lat="48.97254" lon="2.1168">
        <ele>-2.45</ele>
        <time>2023-04-19T07:51:11Z</time>
      </trkpt>
      <trkpt lat="48.97255" lon="2.11678">
        <ele>-2.26</ele>
        <time>2023-04-19T07:51:12Z</time>
      </trkpt>
      <trkpt lat="48.97255" lon="2.11675">
        <ele>-1.85</ele>
        <time>2023-04-19T07:51:13Z</time>
      </trkpt>
      <trkpt lat="48.97259" lon="2.11653">
        <ele>-2.01</ele>
        <time>2023-04-19T07:51:24Z</time>
      </trkpt>
      <trkpt lat="48.97263" lon="2.11637">
        <ele>-1.82</ele>
        <time>2023-04-19T07:51:31Z</time>
      </trkpt>
      <trkpt lat="48.97263" lon="2.11633">
        <ele>-2.12</ele>
        <time>2023-04-19T07:51:33Z</time>
      </trkpt>
      <trkpt lat="48.97264" lon="2.11628">
        <ele>-2.6</ele>
        <time>2023-04-19T07:51:35Z</time>
      </trkpt>
      <trkpt lat="48.97265" lon="2.11627">
        <ele>-2.19</ele>
        <time>2023-04-19T07:51:36Z</time>
      </trkpt>
      <trkpt lat="48.97265" lon="2.11624">
        <ele>-2.43</ele>
        <time>2023-04-19T07:51:37Z</time>
      </trkpt>
      <trkpt lat="48.97267" lon="2.11615">
        <ele>-1.57</ele>
        <time>2023-04-19T07:51:41Z</time>
      </trkpt>
      <trkpt lat="48.97268" lon="2.11613">
        <ele>-2.03</ele>
        <time>2023-04-19T07:51:42Z</time>
      </trkpt>
      <trkpt lat="48.97268" lon="2.1161">
        <ele>-2.11</ele>
        <time>2023-04-19T07:51:43Z</time>
      </trkpt>
      <trkpt lat="48.97268" lon="2.11607">
        <ele>-1.97</ele>
        <time>2023-04-19T07:51:44Z</time>
      </trkpt>
      <trkpt lat="48.97268" lon="2.11604">
        <ele>-2.01</ele>
        <time>2023-04-19T07:51:45Z</time>
      </trkpt>
      <trkpt lat="48.97269" lon="2.11601">
        <ele>-1.57</ele>
        <time>2023-04-19T07:51:46Z</time>
      </trkpt>
      <trkpt lat="48.97269" lon="2.11598">
        <ele>-1.65</ele>
        <time>2023-04-19T07:51:47Z</time>
      </trkpt>
      <trkpt lat="48.9727" lon="2.11596">
        <ele>-1.67</ele>
        <time>2023-04-19T07:51:48Z</time>
      </trkpt>
      <trkpt lat="48.97271" lon="2.11593">
        <ele>-1.79</ele>
        <time>2023-04-19T07:51:49Z</time>
      </trkpt>
      <trkpt lat="48.97271" lon="2.1159">
        <ele>-1.98</ele>
        <time>2023-04-19T07:51:50Z</time>
      </trkpt>
      <trkpt lat="48.97272" lon="2.11587">
        <ele>-1.78</ele>
        <time>2023-04-19T07:51:51Z</time>
      </trkpt>
      <trkpt lat="48.97275" lon="2.11567">
        <ele>-2</ele>
        <time>2023-04-19T07:52:01Z</time>
      </trkpt>
      <trkpt lat="48.97275" lon="2.1155">
        <ele>-1.4</ele>
        <time>2023-04-19T07:52:10Z</time>
      </trkpt>
      <trkpt lat="48.97268" lon="2.11538">
        <ele>-1.33</ele>
        <time>2023-04-19T07:52:18Z</time>
      </trkpt>
      <trkpt lat="48.97262" lon="2.11533">
        <ele>-1.42</ele>
        <time>2023-04-19T07:52:24Z</time>
      </trkpt>
      <trkpt lat="48.9725" lon="2.11521">
        <ele>-0.68</ele>
        <time>2023-04-19T07:52:37Z</time>
      </trkpt>
      <trkpt lat="48.97242" lon="2.11513">
        <ele>-0.78</ele>
        <time>2023-04-19T07:52:44Z</time>
      </trkpt>
      <trkpt lat="48.97236" lon="2.1151">
        <ele>-0.29</ele>
        <time>2023-04-19T07:52:48Z</time>
      </trkpt>
      <trkpt lat="48.97228" lon="2.11502">
        <ele>-0.12</ele>
        <time>2023-04-19T07:52:55Z</time>
      </trkpt>
      <trkpt lat="48.97215" lon="2.11491">
        <ele>0.6</ele>
        <time>2023-04-19T07:53:09Z</time>
      </trkpt>
      <trkpt lat="48.97214" lon="2.11489">
        <ele>0.74</ele>
        <time>2023-04-19T07:53:11Z</time>
      </trkpt>
      <trkpt lat="48.97211" lon="2.11488">
        <ele>1.32</ele>
        <time>2023-04-19T07:53:27Z</time>
      </trkpt>
      <trkpt lat="48.9721" lon="2.11487">
        <ele>1.05</ele>
        <time>2023-04-19T07:53:46Z</time>
      </trkpt>
      <trkpt lat="48.9721" lon="2.11488">
        <ele>1.31</ele>
        <time>2023-04-19T07:54:04Z</time>
      </trkpt>
      <trkpt lat="48.97209" lon="2.1149">
        <ele>1.13</ele>
        <time>2023-04-19T07:54:25Z</time>
      </trkpt>
      <trkpt lat="48.97206" lon="2.11492">
        <ele>1.37</ele>
        <time>2023-04-19T07:54:49Z</time>
      </trkpt>
      <trkpt lat="48.97205" lon="2.1149">
        <ele>1.56</ele>
        <time>2023-04-19T07:55:09Z</time>
      </trkpt>
      <trkpt lat="48.97207" lon="2.11488">
        <ele>2.28</ele>
        <time>2023-04-19T07:55:25Z</time>
      </trkpt>
      <trkpt lat="48.97206" lon="2.11486">
        <ele>2.69</ele>
        <time>2023-04-19T07:55:49Z</time>
      </trkpt>
      <trkpt lat="48.97205" lon="2.11488">
        <ele>3.05</ele>
        <time>2023-04-19T07:56:12Z</time>
      </trkpt>
      <trkpt lat="48.97205" lon="2.11484">
        <ele>2.49</ele>
        <time>2023-04-19T07:56:16Z</time>
      </trkpt>
      <trkpt lat="48.97201" lon="2.11467">
        <ele>3.12</ele>
        <time>2023-04-19T07:56:27Z</time>
      </trkpt>
      <trkpt lat="48.97196" lon="2.11445">
        <ele>3.32</ele>
        <time>2023-04-19T07:56:40Z</time>
      </trkpt>
      <trkpt lat="48.97186" lon="2.11421">
        <ele>4.16</ele>
        <time>2023-04-19T07:56:54Z</time>
      </trkpt>
      <trkpt lat="48.97173" lon="2.11397">
        <ele>4.69</ele>
        <time>2023-04-19T07:57:09Z</time>
      </trkpt>
      <trkpt lat="48.9716" lon="2.11371">
        <ele>5.08</ele>
        <time>2023-04-19T07:57:23Z</time>
      </trkpt>
      <trkpt lat="48.97153" lon="2.1135">
        <ele>5.84</ele>
        <time>2023-04-19T07:57:36Z</time>
      </trkpt>
      <trkpt lat="48.97143" lon="2.11323">
        <ele>6.37</ele>
        <time>2023-04-19T07:57:50Z</time>
      </trkpt>
      <trkpt lat="48.97142" lon="2.11298">
        <ele>6.48</ele>
        <time>2023-04-19T07:58:04Z</time>
      </trkpt>
      <trkpt lat="48.9714" lon="2.11274">
        <ele>6.83</ele>
        <time>2023-04-19T07:58:17Z</time>
      </trkpt>
      <trkpt lat="48.97144" lon="2.11249">
        <ele>6.67</ele>
        <time>2023-04-19T07:58:28Z</time>
      </trkpt>
      <trkpt lat="48.97144" lon="2.11238">
        <ele>5.95</ele>
        <time>2023-04-19T07:58:33Z</time>
      </trkpt>
      <trkpt lat="48.97145" lon="2.11235">
        <ele>6.77</ele>
        <time>2023-04-19T07:58:34Z</time>
      </trkpt>
      <trkpt lat="48.97147" lon="2.11223">
        <ele>6.38</ele>
        <time>2023-04-19T07:58:40Z</time>
      </trkpt>
      <trkpt lat="48.97149" lon="2.11197">
        <ele>6.66</ele>
        <time>2023-04-19T07:58:53Z</time>
      </trkpt>
      <trkpt lat="48.97149" lon="2.11195">
        <ele>6.54</ele>
        <time>2023-04-19T07:58:54Z</time>
      </trkpt>
      <trkpt lat="48.97149" lon="2.11192">
        <ele>6.46</ele>
        <time>2023-04-19T07:58:55Z</time>
      </trkpt>
      <trkpt lat="48.97153" lon="2.11173">
        <ele>6.97</ele>
        <time>2023-04-19T07:59:06Z</time>
      </trkpt>
      <trkpt lat="48.97153" lon="2.11148">
        <ele>7.25</ele>
        <time>2023-04-19T07:59:20Z</time>
      </trkpt>
      <trkpt lat="48.97153" lon="2.11121">
        <ele>6.74</ele>
        <time>2023-04-19T07:59:32Z</time>
      </trkpt>
      <trkpt lat="48.97151" lon="2.11094">
        <ele>7.61</ele>
        <time>2023-04-19T07:59:46Z</time>
      </trkpt>
      <trkpt lat="48.97151" lon="2.11091">
        <ele>7.37</ele>
        <time>2023-04-19T07:59:47Z</time>
      </trkpt>
      <trkpt lat="48.97151" lon="2.11083">
        <ele>8.02</ele>
        <time>2023-04-19T07:59:50Z</time>
      </trkpt>
      <trkpt lat="48.9715" lon="2.11073">
        <ele>7.47</ele>
        <time>2023-04-19T07:59:54Z</time>
      </trkpt>
      <trkpt lat="48.9715" lon="2.1107">
        <ele>7.94</ele>
        <time>2023-04-19T07:59:55Z</time>
      </trkpt>
      <trkpt lat="48.97149" lon="2.11067">
        <ele>8.17</ele>
        <time>2023-04-19T07:59:56Z</time>
      </trkpt>
      <trkpt lat="48.97149" lon="2.11064">
        <ele>7.76</ele>
        <time>2023-04-19T07:59:57Z</time>
      </trkpt>
      <trkpt lat="48.97148" lon="2.11061">
        <ele>8.19</ele>
        <time>2023-04-19T07:59:58Z</time>
      </trkpt>
      <trkpt lat="48.97147" lon="2.11054">
        <ele>8.14</ele>
        <time>2023-04-19T08:00:00Z</time>
      </trkpt>
      <trkpt lat="48.97145" lon="2.11036">
        <ele>8.44</ele>
        <time>2023-04-19T08:00:08Z</time>
      </trkpt>
      <trkpt lat="48.97137" lon="2.11014">
        <ele>9.24</ele>
        <time>2023-04-19T08:00:18Z</time>
      </trkpt>
      <trkpt lat="48.97134" lon="2.10996">
        <ele>9.62</ele>
        <time>2023-04-19T08:00:26Z</time>
      </trkpt>
      <trkpt lat="48.97131" lon="2.10977">
        <ele>9.82</ele>
        <time>2023-04-19T08:00:35Z</time>
      </trkpt>
      <trkpt lat="48.97128" lon="2.1097">
        <ele>9.97</ele>
        <time>2023-04-19T08:00:38Z</time>
      </trkpt>
      <trkpt lat="48.97126" lon="2.10966">
        <ele>9.33</ele>
        <time>2023-04-19T08:00:40Z</time>
      </trkpt>
      <trkpt lat="48.97126" lon="2.10963">
        <ele>10.11</ele>
        <time>2023-04-19T08:00:41Z</time>
      </trkpt>
      <trkpt lat="48.97125" lon="2.10961">
        <ele>9.36</ele>
        <time>2023-04-19T08:00:42Z</time>
      </trkpt>
      <trkpt lat="48.97123" lon="2.10936">
        <ele>10.4</ele>
        <time>2023-04-19T08:00:53Z</time>
      </trkpt>
      <trkpt lat="48.97118" lon="2.10914">
        <ele>10.45</ele>
        <time>2023-04-19T08:01:04Z</time>
      </trkpt>
      <trkpt lat="48.97117" lon="2.10904">
        <ele>10.94</ele>
        <time>2023-04-19T08:01:10Z</time>
      </trkpt>
      <trkpt lat="48.97117" lon="2.10887">
        <ele>10.64</ele>
        <time>2023-04-19T08:01:18Z</time>
      </trkpt>
      <trkpt lat="48.97114" lon="2.10872">
        <ele>11.66</ele>
        <time>2023-04-19T08:01:25Z</time>
      </trkpt>
      <trkpt lat="48.97113" lon="2.10859">
        <ele>11.87</ele>
        <time>2023-04-19T08:01:31Z</time>
      </trkpt>
      <trkpt lat="48.97112" lon="2.10857">
        <ele>11.88</ele>
        <time>2023-04-19T08:01:32Z</time>
      </trkpt>
      <trkpt lat="48.97112" lon="2.10855">
        <ele>11.65</ele>
        <time>2023-04-19T08:01:33Z</time>
      </trkpt>
      <trkpt lat="48.97112" lon="2.10837">
        <ele>11.99</ele>
        <time>2023-04-19T08:01:42Z</time>
      </trkpt>
      <trkpt lat="48.97112" lon="2.10835">
        <ele>11.98</ele>
        <time>2023-04-19T08:01:43Z</time>
      </trkpt>
      <trkpt lat="48.97112" lon="2.10833">
        <ele>11.97</ele>
        <time>2023-04-19T08:01:44Z</time>
      </trkpt>
      <trkpt lat="48.97112" lon="2.1083">
        <ele>11.67</ele>
        <time>2023-04-19T08:01:45Z</time>
      </trkpt>
      <trkpt lat="48.9711" lon="2.10819">
        <ele>12.56</ele>
        <time>2023-04-19T08:01:50Z</time>
      </trkpt>
      <trkpt lat="48.9711" lon="2.10817">
        <ele>12.35</ele>
        <time>2023-04-19T08:01:51Z</time>
      </trkpt>
      <trkpt lat="48.97105" lon="2.10794">
        <ele>12.32</ele>
        <time>2023-04-19T08:02:01Z</time>
      </trkpt>
      <trkpt lat="48.97102" lon="2.10778">
        <ele>13.02</ele>
        <time>2023-04-19T08:02:10Z</time>
      </trkpt>
      <trkpt lat="48.97102" lon="2.10775">
        <ele>13.66</ele>
        <time>2023-04-19T08:02:11Z</time>
      </trkpt>
      <trkpt lat="48.97102" lon="2.10773">
        <ele>13.57</ele>
        <time>2023-04-19T08:02:12Z</time>
      </trkpt>
      <trkpt lat="48.97103" lon="2.10765">
        <ele>12.9</ele>
        <time>2023-04-19T08:02:25Z</time>
      </trkpt>
      <trkpt lat="48.97101" lon="2.10764">
        <ele>13.95</ele>
        <time>2023-04-19T08:02:45Z</time>
      </trkpt>
      <trkpt lat="48.97097" lon="2.10761">
        <ele>13.45</ele>
        <time>2023-04-19T08:03:05Z</time>
      </trkpt>
      <trkpt lat="48.97095" lon="2.10759">
        <ele>13.44</ele>
        <time>2023-04-19T08:03:21Z</time>
      </trkpt>
      <trkpt lat="48.97094" lon="2.1076">
        <ele>13.27</ele>
        <time>2023-04-19T08:03:41Z</time>
      </trkpt>
      <trkpt lat="48.97094" lon="2.10762">
        <ele>14.03</ele>
        <time>2023-04-19T08:04:01Z</time>
      </trkpt>
      <trkpt lat="48.97092" lon="2.10761">
        <ele>14.46</ele>
        <time>2023-04-19T08:04:20Z</time>
      </trkpt>
      <trkpt lat="48.97091" lon="2.10752">
        <ele>14.4</ele>
        <time>2023-04-19T08:04:35Z</time>
      </trkpt>
      <trkpt lat="48.97091" lon="2.10749">
        <ele>14.74</ele>
        <time>2023-04-19T08:04:37Z</time>
      </trkpt>
      <trkpt lat="48.97093" lon="2.10729">
        <ele>14.9</ele>
        <time>2023-04-19T08:04:48Z</time>
      </trkpt>
      <trkpt lat="48.97093" lon="2.10723">
        <ele>14.9</ele>
        <time>2023-04-19T08:04:51Z</time>
      </trkpt>
      <trkpt lat="48.97092" lon="2.10705">
        <ele>14.65</ele>
        <time>2023-04-19T08:04:59Z</time>
      </trkpt>
      <trkpt lat="48.97092" lon="2.10689">
        <ele>14.67</ele>
        <time>2023-04-19T08:05:06Z</time>
      </trkpt>
      <trkpt lat="48.97092" lon="2.10686">
        <ele>14.99</ele>
        <time>2023-04-19T08:05:07Z</time>
      </trkpt>
      <trkpt lat="48.97092" lon="2.10684">
        <ele>14.97</ele>
        <time>2023-04-19T08:05:08Z</time>
      </trkpt>
      <trkpt lat="48.97095" lon="2.10657">
        <ele>15.32</ele>
        <time>2023-04-19T08:05:19Z</time>
      </trkpt>
      <trkpt lat="48.97094" lon="2.10642">
        <ele>15.52</ele>
        <time>2023-04-19T08:05:25Z</time>
      </trkpt>
      <trkpt lat="48.97095" lon="2.10621">
        <ele>15.31</ele>
        <time>2023-04-19T08:05:35Z</time>
      </trkpt>
      <trkpt lat="48.97096" lon="2.10593">
        <ele>15.35</ele>
        <time>2023-04-19T08:05:47Z</time>
      </trkpt>
      <trkpt lat="48.97096" lon="2.1058">
        <ele>15.75</ele>
        <time>2023-04-19T08:05:52Z</time>
      </trkpt>
      <trkpt lat="48.97096" lon="2.10578">
        <ele>15.38</ele>
        <time>2023-04-19T08:05:53Z</time>
      </trkpt>
      <trkpt lat="48.97095" lon="2.10575">
        <ele>15.38</ele>
        <time>2023-04-19T08:05:54Z</time>
      </trkpt>
      <trkpt lat="48.97095" lon="2.10572">
        <ele>15.51</ele>
        <time>2023-04-19T08:05:55Z</time>
      </trkpt>
      <trkpt lat="48.97095" lon="2.10569">
        <ele>15.52</ele>
        <time>2023-04-19T08:05:56Z</time>
      </trkpt>
      <trkpt lat="48.97095" lon="2.10567">
        <ele>15.66</ele>
        <time>2023-04-19T08:05:57Z</time>
      </trkpt>
      <trkpt lat="48.97095" lon="2.10562">
        <ele>15.78</ele>
        <time>2023-04-19T08:05:59Z</time>
      </trkpt>
      <trkpt lat="48.97094" lon="2.10559">
        <ele>15.76</ele>
        <time>2023-04-19T08:06:00Z</time>
      </trkpt>
      <trkpt lat="48.97093" lon="2.10557">
        <ele>15.34</ele>
        <time>2023-04-19T08:06:01Z</time>
      </trkpt>
      <trkpt lat="48.97093" lon="2.10553">
        <ele>15.65</ele>
        <time>2023-04-19T08:06:03Z</time>
      </trkpt>
      <trkpt lat="48.97093" lon="2.10551">
        <ele>15.44</ele>
        <time>2023-04-19T08:06:04Z</time>
      </trkpt>
      <trkpt lat="48.97093" lon="2.10549">
        <ele>15.7</ele>
        <time>2023-04-19T08:06:05Z</time>
      </trkpt>
      <trkpt lat="48.97092" lon="2.10545">
        <ele>15.67</ele>
        <time>2023-04-19T08:06:07Z</time>
      </trkpt>
      <trkpt lat="48.97091" lon="2.1054">
        <ele>15.73</ele>
        <time>2023-04-19T08:06:09Z</time>
      </trkpt>
      <trkpt lat="48.97087" lon="2.10524">
        <ele>15.82</ele>
        <time>2023-04-19T08:06:18Z</time>
      </trkpt>
      <trkpt lat="48.97084" lon="2.10509">
        <ele>15.44</ele>
        <time>2023-04-19T08:06:25Z</time>
      </trkpt>
      <trkpt lat="48.97084" lon="2.10506">
        <ele>15.75</ele>
        <time>2023-04-19T08:06:26Z</time>
      </trkpt>
      <trkpt lat="48.97084" lon="2.10504">
        <ele>15.63</ele>
        <time>2023-04-19T08:06:27Z</time>
      </trkpt>
      <trkpt lat="48.97085" lon="2.1048">
        <ele>16.11</ele>
        <time>2023-04-19T08:06:38Z</time>
      </trkpt>
      <trkpt lat="48.97085" lon="2.10471">
        <ele>15.08</ele>
        <time>2023-04-19T08:06:41Z</time>
      </trkpt>
      <trkpt lat="48.97084" lon="2.10463">
        <ele>15.58</ele>
        <time>2023-04-19T08:06:45Z</time>
      </trkpt>
      <trkpt lat="48.97085" lon="2.10461">
        <ele>15.44</ele>
        <time>2023-04-19T08:06:46Z</time>
      </trkpt>
      <trkpt lat="48.97083" lon="2.10438">
        <ele>14.99</ele>
        <time>2023-04-19T08:06:57Z</time>
      </trkpt>
      <trkpt lat="48.97079" lon="2.10418">
        <ele>15.26</ele>
        <time>2023-04-19T08:07:06Z</time>
      </trkpt>
      <trkpt lat="48.97074" lon="2.10392">
        <ele>14.88</ele>
        <time>2023-04-19T08:07:19Z</time>
      </trkpt>
      <trkpt lat="48.97071" lon="2.10379">
        <ele>14.44</ele>
        <time>2023-04-19T08:07:25Z</time>
      </trkpt>
      <trkpt lat="48.97071" lon="2.10374">
        <ele>14.7</ele>
        <time>2023-04-19T08:07:27Z</time>
      </trkpt>
      <trkpt lat="48.97069" lon="2.10359">
        <ele>13.81</ele>
        <time>2023-04-19T08:07:34Z</time>
      </trkpt>
      <trkpt lat="48.97066" lon="2.10336">
        <ele>13.67</ele>
        <time>2023-04-19T08:07:45Z</time>
      </trkpt>
      <trkpt lat="48.97064" lon="2.10326">
        <ele>13.35</ele>
        <time>2023-04-19T08:07:50Z</time>
      </trkpt>
      <trkpt lat="48.97062" lon="2.10304">
        <ele>13.96</ele>
        <time>2023-04-19T08:08:00Z</time>
      </trkpt>
      <trkpt lat="48.9706" lon="2.10278">
        <ele>14.34</ele>
        <time>2023-04-19T08:08:11Z</time>
      </trkpt>
      <trkpt lat="48.9706" lon="2.10267">
        <ele>14.72</ele>
        <time>2023-04-19T08:08:15Z</time>
      </trkpt>
      <trkpt lat="48.9706" lon="2.10264">
        <ele>14.14</ele>
        <time>2023-04-19T08:08:16Z</time>
      </trkpt>
      <trkpt lat="48.9706" lon="2.10262">
        <ele>14.41</ele>
        <time>2023-04-19T08:08:17Z</time>
      </trkpt>
      <trkpt lat="48.97059" lon="2.10259">
        <ele>14.55</ele>
        <time>2023-04-19T08:08:18Z</time>
      </trkpt>
      <trkpt lat="48.97058" lon="2.10256">
        <ele>14.05</ele>
        <time>2023-04-19T08:08:19Z</time>
      </trkpt>
      <trkpt lat="48.97057" lon="2.10254">
        <ele>14.73</ele>
        <time>2023-04-19T08:08:20Z</time>
      </trkpt>
      <trkpt lat="48.97057" lon="2.10251">
        <ele>14.58</ele>
        <time>2023-04-19T08:08:21Z</time>
      </trkpt>
      <trkpt lat="48.9706" lon="2.10235">
        <ele>14.85</ele>
        <time>2023-04-19T08:08:31Z</time>
      </trkpt>
      <trkpt lat="48.97061" lon="2.10233">
        <ele>15.32</ele>
        <time>2023-04-19T08:08:32Z</time>
      </trkpt>
      <trkpt lat="48.97068" lon="2.10215">
        <ele>14.78</ele>
        <time>2023-04-19T08:08:42Z</time>
      </trkpt>
      <trkpt lat="48.97077" lon="2.10198">
        <ele>14.56</ele>
        <time>2023-04-19T08:08:53Z</time>
      </trkpt>
      <trkpt lat="48.97079" lon="2.10196">
        <ele>14.38</ele>
        <time>2023-04-19T08:08:54Z</time>
      </trkpt>
      <trkpt lat="48.9709" lon="2.10183">
        <ele>14.26</ele>
        <time>2023-04-19T08:09:03Z</time>
      </trkpt>
      <trkpt lat="48.97093" lon="2.10175">
        <ele>14.39</ele>
        <time>2023-04-19T08:09:10Z</time>
      </trkpt>
      <trkpt lat="48.97095" lon="2.10172">
        <ele>14.19</ele>
        <time>2023-04-19T08:09:12Z</time>
      </trkpt>
      <trkpt lat="48.97104" lon="2.10161">
        <ele>14.19</ele>
        <time>2023-04-19T08:09:23Z</time>
      </trkpt>
      <trkpt lat="48.97105" lon="2.10159">
        <ele>13.76</ele>
        <time>2023-04-19T08:09:25Z</time>
      </trkpt>
      <trkpt lat="48.97106" lon="2.10157">
        <ele>13.84</ele>
        <time>2023-04-19T08:09:26Z</time>
      </trkpt>
      <trkpt lat="48.97108" lon="2.10155">
        <ele>13.74</ele>
        <time>2023-04-19T08:09:27Z</time>
      </trkpt>
      <trkpt lat="48.97123" lon="2.10136">
        <ele>13.82</ele>
        <time>2023-04-19T08:09:38Z</time>
      </trkpt>
      <trkpt lat="48.97131" lon="2.1012">
        <ele>13.38</ele>
        <time>2023-04-19T08:09:47Z</time>
      </trkpt>
      <trkpt lat="48.97145" lon="2.10102">
        <ele>13.3</ele>
        <time>2023-04-19T08:09:59Z</time>
      </trkpt>
      <trkpt lat="48.97153" lon="2.10096">
        <ele>13.14</ele>
        <time>2023-04-19T08:10:05Z</time>
      </trkpt>
      <trkpt lat="48.97154" lon="2.10094">
        <ele>13.55</ele>
        <time>2023-04-19T08:10:06Z</time>
      </trkpt>
      <trkpt lat="48.97157" lon="2.1009">
        <ele>12.69</ele>
        <time>2023-04-19T08:10:09Z</time>
      </trkpt>
      <trkpt lat="48.97157" lon="2.10088">
        <ele>13.3</ele>
        <time>2023-04-19T08:10:10Z</time>
      </trkpt>
      <trkpt lat="48.97166" lon="2.10073">
        <ele>13.42</ele>
        <time>2023-04-19T08:10:22Z</time>
      </trkpt>
      <trkpt lat="48.9717" lon="2.10069">
        <ele>12.79</ele>
        <time>2023-04-19T08:10:25Z</time>
      </trkpt>
      <trkpt lat="48.97172" lon="2.10066">
        <ele>13.16</ele>
        <time>2023-04-19T08:10:26Z</time>
      </trkpt>
      <trkpt lat="48.97174" lon="2.10064">
        <ele>12.81</ele>
        <time>2023-04-19T08:10:27Z</time>
      </trkpt>
      <trkpt lat="48.97185" lon="2.10049">
        <ele>12.39</ele>
        <time>2023-04-19T08:10:35Z</time>
      </trkpt>
      <trkpt lat="48.97193" lon="2.10037">
        <ele>12.07</ele>
        <time>2023-04-19T08:10:45Z</time>
      </trkpt>
      <trkpt lat="48.97195" lon="2.10032">
        <ele>12.13</ele>
        <time>2023-04-19T08:10:55Z</time>
      </trkpt>
      <trkpt lat="48.97185" lon="2.1003">
        <ele>12.18</ele>
        <time>2023-04-19T08:11:07Z</time>
      </trkpt>
      <trkpt lat="48.97176" lon="2.10033">
        <ele>12.88</ele>
        <time>2023-04-19T08:11:26Z</time>
      </trkpt>
      <trkpt lat="48.97174" lon="2.10032">
        <ele>12.66</ele>
        <time>2023-04-19T08:11:43Z</time>
      </trkpt>
      <trkpt lat="48.97182" lon="2.10033">
        <ele>12.14</ele>
        <time>2023-04-19T08:12:00Z</time>
      </trkpt>
      <trkpt lat="48.97186" lon="2.10035">
        <ele>12.49</ele>
        <time>2023-04-19T08:12:21Z</time>
      </trkpt>
      <trkpt lat="48.97188" lon="2.10027">
        <ele>12.13</ele>
        <time>2023-04-19T08:12:38Z</time>
      </trkpt>
      <trkpt lat="48.97186" lon="2.10022">
        <ele>12.84</ele>
        <time>2023-04-19T08:13:00Z</time>
      </trkpt>
      <trkpt lat="48.97183" lon="2.10018">
        <ele>12.74</ele>
        <time>2023-04-19T08:13:17Z</time>
      </trkpt>
      <trkpt lat="48.9718" lon="2.10013">
        <ele>12.95</ele>
        <time>2023-04-19T08:13:38Z</time>
      </trkpt>
      <trkpt lat="48.9718" lon="2.10013">
        <ele>13.48</ele>
        <time>2023-04-19T08:14:00Z</time>
      </trkpt>
      <trkpt lat="48.97181" lon="2.10016">
        <ele>13.23</ele>
        <time>2023-04-19T08:14:17Z</time>
      </trkpt>
      <trkpt lat="48.97181" lon="2.10015">
        <ele>12.51</ele>
        <time>2023-04-19T08:14:35Z</time>
      </trkpt>
      <trkpt lat="48.97182" lon="2.10017">
        <ele>13.69</ele>
        <time>2023-04-19T08:14:54Z</time>
      </trkpt>
      <trkpt lat="48.97181" lon="2.10015">
        <ele>13.8</ele>
        <time>2023-04-19T08:15:17Z</time>
      </trkpt>
      <trkpt lat="48.97182" lon="2.10004">
        <ele>14.21</ele>
        <time>2023-04-19T08:15:33Z</time>
      </trkpt>
      <trkpt lat="48.97185" lon="2.09986">
        <ele>13.9</ele>
        <time>2023-04-19T08:15:47Z</time>
      </trkpt>
      <trkpt lat="48.97185" lon="2.09987">
        <ele>13.78</ele>
        <time>2023-04-19T08:15:59Z</time>
      </trkpt>
      <trkpt lat="48.97184" lon="2.10009">
        <ele>14.02</ele>
        <time>2023-04-19T08:16:13Z</time>
      </trkpt>
      <trkpt lat="48.97184" lon="2.10011">
        <ele>14.08</ele>
        <time>2023-04-19T08:16:14Z</time>
      </trkpt>
      <trkpt lat="48.97192" lon="2.10024">
        <ele>13.55</ele>
        <time>2023-04-19T08:16:25Z</time>
      </trkpt>
      <trkpt lat="48.97203" lon="2.10028">
        <ele>13.45</ele>
        <time>2023-04-19T08:16:34Z</time>
      </trkpt>
      <trkpt lat="48.97204" lon="2.10028">
        <ele>13.72</ele>
        <time>2023-04-19T08:16:35Z</time>
      </trkpt>
      <trkpt lat="48.97213" lon="2.10034">
        <ele>12.58</ele>
        <time>2023-04-19T08:16:44Z</time>
      </trkpt>
      <trkpt lat="48.97215" lon="2.10034">
        <ele>12.99</ele>
        <time>2023-04-19T08:16:45Z</time>
      </trkpt>
      <trkpt lat="48.9722" lon="2.10036">
        <ele>12.51</ele>
        <time>2023-04-19T08:16:49Z</time>
      </trkpt>
      <trkpt lat="48.97221" lon="2.10036">
        <ele>12.57</ele>
        <time>2023-04-19T08:16:50Z</time>
      </trkpt>
      <trkpt lat="48.97238" lon="2.1004">
        <ele>11.88</ele>
        <time>2023-04-19T08:17:01Z</time>
      </trkpt>
      <trkpt lat="48.97248" lon="2.10042">
        <ele>11.39</ele>
        <time>2023-04-19T08:17:09Z</time>
      </trkpt>
      <trkpt lat="48.97263" lon="2.10045">
        <ele>11.22</ele>
        <time>2023-04-19T08:17:23Z</time>
      </trkpt>
      <trkpt lat="48.97269" lon="2.10045">
        <ele>10.52</ele>
        <time>2023-04-19T08:17:27Z</time>
      </trkpt>
      <trkpt lat="48.97271" lon="2.10044">
        <ele>10.5</ele>
        <time>2023-04-19T08:17:28Z</time>
      </trkpt>
      <trkpt lat="48.97273" lon="2.10044">
        <ele>10.68</ele>
        <time>2023-04-19T08:17:29Z</time>
      </trkpt>
      <trkpt lat="48.97283" lon="2.10046">
        <ele>10.44</ele>
        <time>2023-04-19T08:17:36Z</time>
      </trkpt>
      <trkpt lat="48.97284" lon="2.10046">
        <ele>10.33</ele>
        <time>2023-04-19T08:17:37Z</time>
      </trkpt>
      <trkpt lat="48.97291" lon="2.10048">
        <ele>10.5</ele>
        <time>2023-04-19T08:17:41Z</time>
      </trkpt>
      <trkpt lat="48.97295" lon="2.10047">
        <ele>10.11</ele>
        <time>2023-04-19T08:17:45Z</time>
      </trkpt>
      <trkpt lat="48.973" lon="2.10048">
        <ele>10.22</ele>
        <time>2023-04-19T08:17:48Z</time>
      </trkpt>
      <trkpt lat="48.97301" lon="2.10049">
        <ele>10.23</ele>
        <time>2023-04-19T08:17:49Z</time>
      </trkpt>
      <trkpt lat="48.97316" lon="2.10052">
        <ele>8.82</ele>
        <time>2023-04-19T08:18:01Z</time>
      </trkpt>
      <trkpt lat="48.97329" lon="2.10056">
        <ele>7.4</ele>
        <time>2023-04-19T08:18:12Z</time>
      </trkpt>
      <trkpt lat="48.97334" lon="2.10058">
        <ele>6.59</ele>
        <time>2023-04-19T08:18:17Z</time>
      </trkpt>
      <trkpt lat="48.97339" lon="2.10057">
        <ele>6.41</ele>
        <time>2023-04-19T08:18:19Z</time>
      </trkpt>
      <trkpt lat="48.97353" lon="2.10056">
        <ele>5.15</ele>
        <time>2023-04-19T08:18:27Z</time>
      </trkpt>
      <trkpt lat="48.97355" lon="2.10055">
        <ele>5.2</ele>
        <time>2023-04-19T08:18:28Z</time>
      </trkpt>
      <trkpt lat="48.97358" lon="2.10055">
        <ele>5.49</ele>
        <time>2023-04-19T08:18:29Z</time>
      </trkpt>
      <trkpt lat="48.97375" lon="2.10055">
        <ele>4.82</ele>
        <time>2023-04-19T08:18:38Z</time>
      </trkpt>
      <trkpt lat="48.97385" lon="2.10055">
        <ele>4.31</ele>
        <time>2023-04-19T08:18:46Z</time>
      </trkpt>
      <trkpt lat="48.97394" lon="2.1006">
        <ele>4.08</ele>
        <time>2023-04-19T08:18:53Z</time>
      </trkpt>
      <trkpt lat="48.97403" lon="2.10062">
        <ele>3.51</ele>
        <time>2023-04-19T08:19:00Z</time>
      </trkpt>
      <trkpt lat="48.97409" lon="2.10063">
        <ele>3.92</ele>
        <time>2023-04-19T08:19:03Z</time>
      </trkpt>
      <trkpt lat="48.97424" lon="2.10063">
        <ele>3.07</ele>
        <time>2023-04-19T08:19:13Z</time>
      </trkpt>
      <trkpt lat="48.97438" lon="2.10064">
        <ele>2.86</ele>
        <time>2023-04-19T08:19:23Z</time>
      </trkpt>
      <trkpt lat="48.9745" lon="2.10063">
        <ele>2.38</ele>
        <time>2023-04-19T08:19:31Z</time>
      </trkpt>
      <trkpt lat="48.97464" lon="2.10065">
        <ele>2.23</ele>
        <time>2023-04-19T08:19:42Z</time>
      </trkpt>
      <trkpt lat="48.97474" lon="2.10067">
        <ele>2.09</ele>
        <time>2023-04-19T08:19:52Z</time>
      </trkpt>
      <trkpt lat="48.97486" lon="2.10069">
        <ele>1.72</ele>
        <time>2023-04-19T08:19:59Z</time>
      </trkpt>
      <trkpt lat="48.97489" lon="2.10068">
        <ele>1.99</ele>
        <time>2023-04-19T08:20:00Z</time>
      </trkpt>
      <trkpt lat="48.97491" lon="2.10068">
        <ele>2.1</ele>
        <time>2023-04-19T08:20:01Z</time>
      </trkpt>
      <trkpt lat="48.975" lon="2.1007">
        <ele>2.19</ele>
        <time>2023-04-19T08:20:09Z</time>
      </trkpt>
      <trkpt lat="48.97518" lon="2.10072">
        <ele>1.98</ele>
        <time>2023-04-19T08:20:22Z</time>
      </trkpt>
      <trkpt lat="48.97521" lon="2.10072">
        <ele>1.43</ele>
        <time>2023-04-19T08:20:24Z</time>
      </trkpt>
      <trkpt lat="48.97523" lon="2.10072">
        <ele>2.19</ele>
        <time>2023-04-19T08:20:25Z</time>
      </trkpt>
      <trkpt lat="48.97544" lon="2.10072">
        <ele>1.95</ele>
        <time>2023-04-19T08:20:39Z</time>
      </trkpt>
      <trkpt lat="48.97561" lon="2.10076">
        <ele>1.6</ele>
        <time>2023-04-19T08:20:50Z</time>
      </trkpt>
      <trkpt lat="48.97565" lon="2.10076">
        <ele>1.41</ele>
        <time>2023-04-19T08:20:52Z</time>
      </trkpt>
      <trkpt lat="48.97576" lon="2.10078">
        <ele>2.07</ele>
        <time>2023-04-19T08:21:01Z</time>
      </trkpt>
      <trkpt lat="48.97586" lon="2.10077">
        <ele>1.69</ele>
        <time>2023-04-19T08:21:07Z</time>
      </trkpt>
      <trkpt lat="48.976" lon="2.10077">
        <ele>1.51</ele>
        <time>2023-04-19T08:21:19Z</time>
      </trkpt>
      <trkpt lat="48.97618" lon="2.10078">
        <ele>1.94</ele>
        <time>2023-04-19T08:21:32Z</time>
      </trkpt>
      <trkpt lat="48.97639" lon="2.1008">
        <ele>1.79</ele>
        <time>2023-04-19T08:21:42Z</time>
      </trkpt>
      <trkpt lat="48.97643" lon="2.1008">
        <ele>1.62</ele>
        <time>2023-04-19T08:21:45Z</time>
      </trkpt>
      <trkpt lat="48.97652" lon="2.10074">
        <ele>2.02</ele>
        <time>2023-04-19T08:21:55Z</time>
      </trkpt>
      <trkpt lat="48.97653" lon="2.10073">
        <ele>2.33</ele>
        <time>2023-04-19T08:21:56Z</time>
      </trkpt>
      <trkpt lat="48.97655" lon="2.10073">
        <ele>1.96</ele>
        <time>2023-04-19T08:21:57Z</time>
      </trkpt>
      <trkpt lat="48.97659" lon="2.1007">
        <ele>1.72</ele>
        <time>2023-04-19T08:22:05Z</time>
      </trkpt>
      <trkpt lat="48.97663" lon="2.1006">
        <ele>0.22</ele>
        <time>2023-04-19T08:22:19Z</time>
      </trkpt>
      <trkpt lat="48.97672" lon="2.10048">
        <ele>1.57</ele>
        <time>2023-04-19T08:22:33Z</time>
      </trkpt>
      <trkpt lat="48.97684" lon="2.10042">
        <ele>0.65</ele>
        <time>2023-04-19T08:22:51Z</time>
      </trkpt>
      <trkpt lat="48.97689" lon="2.10031">
        <ele>2.04</ele>
        <time>2023-04-19T08:23:04Z</time>
      </trkpt>
      <trkpt lat="48.97697" lon="2.10021">
        <ele>1.73</ele>
        <time>2023-04-19T08:23:17Z</time>
      </trkpt>
      <trkpt lat="48.97699" lon="2.10018">
        <ele>1.88</ele>
        <time>2023-04-19T08:23:19Z</time>
      </trkpt>
      <trkpt lat="48.97703" lon="2.10011">
        <ele>1.93</ele>
        <time>2023-04-19T08:23:28Z</time>
      </trkpt>
      <trkpt lat="48.97703" lon="2.10006">
        <ele>2.45</ele>
        <time>2023-04-19T08:23:47Z</time>
      </trkpt>
      <trkpt lat="48.97704" lon="2.09998">
        <ele>1.93</ele>
        <time>2023-04-19T08:23:53Z</time>
      </trkpt>
      <trkpt lat="48.97708" lon="2.09988">
        <ele>1.88</ele>
        <time>2023-04-19T08:23:59Z</time>
      </trkpt>
      <trkpt lat="48.97704" lon="2.09977">
        <ele>2.4</ele>
        <time>2023-04-19T08:24:06Z</time>
      </trkpt>
      <trkpt lat="48.9769" lon="2.09966">
        <ele>2.56</ele>
        <time>2023-04-19T08:24:16Z</time>
      </trkpt>
      <trkpt lat="48.9768" lon="2.09959">
        <ele>2.16</ele>
        <time>2023-04-19T08:24:25Z</time>
      </trkpt>
      <trkpt lat="48.97678" lon="2.09958">
        <ele>2.18</ele>
        <time>2023-04-19T08:24:27Z</time>
      </trkpt>
      <trkpt lat="48.97666" lon="2.09955">
        <ele>2.34</ele>
        <time>2023-04-19T08:24:35Z</time>
      </trkpt>
      <trkpt lat="48.97664" lon="2.09954">
        <ele>2.21</ele>
        <time>2023-04-19T08:24:37Z</time>
      </trkpt>
      <trkpt lat="48.97652" lon="2.09948">
        <ele>2.56</ele>
        <time>2023-04-19T08:24:47Z</time>
      </trkpt>
      <trkpt lat="48.97641" lon="2.09941">
        <ele>2.43</ele>
        <time>2023-04-19T08:24:56Z</time>
      </trkpt>
      <trkpt lat="48.9763" lon="2.09936">
        <ele>2.18</ele>
        <time>2023-04-19T08:25:05Z</time>
      </trkpt>
      <trkpt lat="48.97624" lon="2.09933">
        <ele>2.61</ele>
        <time>2023-04-19T08:25:09Z</time>
      </trkpt>
      <trkpt lat="48.97612" lon="2.09917">
        <ele>2.4</ele>
        <time>2023-04-19T08:25:21Z</time>
      </trkpt>
      <trkpt lat="48.97607" lon="2.09909">
        <ele>2.17</ele>
        <time>2023-04-19T08:25:26Z</time>
      </trkpt>
      <trkpt lat="48.97605" lon="2.09896">
        <ele>2.3</ele>
        <time>2023-04-19T08:25:34Z</time>
      </trkpt>
      <trkpt lat="48.97604" lon="2.09885">
        <ele>2.4</ele>
        <time>2023-04-19T08:25:40Z</time>
      </trkpt>
      <trkpt lat="48.9761" lon="2.09862">
        <ele>1.55</ele>
        <time>2023-04-19T08:25:51Z</time>
      </trkpt>
      <trkpt lat="48.97611" lon="2.09858">
        <ele>1.95</ele>
        <time>2023-04-19T08:25:53Z</time>
      </trkpt>
      <trkpt lat="48.97613" lon="2.09839">
        <ele>1.8</ele>
        <time>2023-04-19T08:26:03Z</time>
      </trkpt>
      <trkpt lat="48.97616" lon="2.09829">
        <ele>1.24</ele>
        <time>2023-04-19T08:26:08Z</time>
      </trkpt>
      <trkpt lat="48.9762" lon="2.09813">
        <ele>1.76</ele>
        <time>2023-04-19T08:26:16Z</time>
      </trkpt>
      <trkpt lat="48.97621" lon="2.09808">
        <ele>1.48</ele>
        <time>2023-04-19T08:26:19Z</time>
      </trkpt>
      <trkpt lat="48.97626" lon="2.09795">
        <ele>0.77</ele>
        <time>2023-04-19T08:26:26Z</time>
      </trkpt>
      <trkpt lat="48.97632" lon="2.09774">
        <ele>0.83</ele>
        <time>2023-04-19T08:26:36Z</time>
      </trkpt>
      <trkpt lat="48.97637" lon="2.09761">
        <ele>0.34</ele>
        <time>2023-04-19T08:26:44Z</time>
      </trkpt>
      <trkpt lat="48.97643" lon="2.09735">
        <ele>0.44</ele>
        <time>2023-04-19T08:26:58Z</time>
      </trkpt>
      <trkpt lat="48.97643" lon="2.09731">
        <ele>0.12</ele>
        <time>2023-04-19T08:27:00Z</time>
      </trkpt>
      <trkpt lat="48.97645" lon="2.09707">
        <ele>0.13</ele>
        <time>2023-04-19T08:27:10Z</time>
      </trkpt>
      <trkpt lat="48.97644" lon="2.09703">
        <ele>0.27</ele>
        <time>2023-04-19T08:27:12Z</time>
      </trkpt>
      <trkpt lat="48.97645" lon="2.09695">
        <ele>-0.1</ele>
        <time>2023-04-19T08:27:16Z</time>
      </trkpt>
      <trkpt lat="48.97643" lon="2.09682">
        <ele>-0.27</ele>
        <time>2023-04-19T08:27:23Z</time>
      </trkpt>
      <trkpt lat="48.9764" lon="2.09671">
        <ele>-0.11</ele>
        <time>2023-04-19T08:27:28Z</time>
      </trkpt>
      <trkpt lat="48.97633" lon="2.09653">
        <ele>-0.55</ele>
        <time>2023-04-19T08:27:37Z</time>
      </trkpt>
      <trkpt lat="48.97629" lon="2.09643">
        <ele>-0.52</ele>
        <time>2023-04-19T08:27:43Z</time>
      </trkpt>
      <trkpt lat="48.97623" lon="2.09637">
        <ele>-0.63</ele>
        <time>2023-04-19T08:27:48Z</time>
      </trkpt>
      <trkpt lat="48.97619" lon="2.09632">
        <ele>-0.83</ele>
        <time>2023-04-19T08:27:52Z</time>
      </trkpt>
      <trkpt lat="48.97617" lon="2.09628">
        <ele>-0.94</ele>
        <time>2023-04-19T08:27:54Z</time>
      </trkpt>
      <trkpt lat="48.97609" lon="2.09615">
        <ele>-1.1</ele>
        <time>2023-04-19T08:28:04Z</time>
      </trkpt>
      <trkpt lat="48.97593" lon="2.09595">
        <ele>-1.58</ele>
        <time>2023-04-19T08:28:18Z</time>
      </trkpt>
      <trkpt lat="48.97592" lon="2.09595">
        <ele>-1.62</ele>
        <time>2023-04-19T08:28:19Z</time>
      </trkpt>
      <trkpt lat="48.97582" lon="2.09579">
        <ele>-1.84</ele>
        <time>2023-04-19T08:28:28Z</time>
      </trkpt>
      <trkpt lat="48.97581" lon="2.09576">
        <ele>-2.04</ele>
        <time>2023-04-19T08:28:29Z</time>
      </trkpt>
      <trkpt lat="48.97575" lon="2.09561">
        <ele>-2.09</ele>
        <time>2023-04-19T08:28:36Z</time>
      </trkpt>
      <trkpt lat="48.97572" lon="2.09559">
        <ele>-2.39</ele>
        <time>2023-04-19T08:28:38Z</time>
      </trkpt>
      <trkpt lat="48.97563" lon="2.09547">
        <ele>-2.14</ele>
        <time>2023-04-19T08:28:47Z</time>
      </trkpt>
      <trkpt lat="48.97551" lon="2.09539">
        <ele>-2.08</ele>
        <time>2023-04-19T08:28:58Z</time>
      </trkpt>
      <trkpt lat="48.97531" lon="2.09532">
        <ele>-2.08</ele>
        <time>2023-04-19T08:29:11Z</time>
      </trkpt>
      <trkpt lat="48.97518" lon="2.09528">
        <ele>-1.7</ele>
        <time>2023-04-19T08:29:19Z</time>
      </trkpt>
      <trkpt lat="48.97503" lon="2.0952">
        <ele>-1.47</ele>
        <time>2023-04-19T08:29:28Z</time>
      </trkpt>
      <trkpt lat="48.975" lon="2.09518">
        <ele>-1.85</ele>
        <time>2023-04-19T08:29:31Z</time>
      </trkpt>
      <trkpt lat="48.9749" lon="2.09517">
        <ele>-1.19</ele>
        <time>2023-04-19T08:29:37Z</time>
      </trkpt>
      <trkpt lat="48.97486" lon="2.09517">
        <ele>-1.26</ele>
        <time>2023-04-19T08:29:40Z</time>
      </trkpt>
      <trkpt lat="48.97478" lon="2.09514">
        <ele>-1.32</ele>
        <time>2023-04-19T08:29:45Z</time>
      </trkpt>
      <trkpt lat="48.97459" lon="2.09507">
        <ele>-0.41</ele>
        <time>2023-04-19T08:29:57Z</time>
      </trkpt>
      <trkpt lat="48.97447" lon="2.09504">
        <ele>0.45</ele>
        <time>2023-04-19T08:30:06Z</time>
      </trkpt>
      <trkpt lat="48.97432" lon="2.09498">
        <ele>1.53</ele>
        <time>2023-04-19T08:30:17Z</time>
      </trkpt>
      <trkpt lat="48.97421" lon="2.09495">
        <ele>2.05</ele>
        <time>2023-04-19T08:30:29Z</time>
      </trkpt>
      <trkpt lat="48.97421" lon="2.09495">
        <ele>2.83</ele>
        <time>2023-04-19T08:30:33Z</time>
      </trkpt>
      <trkpt lat="48.97418" lon="2.09497">
        <ele>1.93</ele>
        <time>2023-04-19T08:30:51Z</time>
      </trkpt>
      <trkpt lat="48.97415" lon="2.09501">
        <ele>2.48</ele>
        <time>2023-04-19T08:31:08Z</time>
      </trkpt>
      <trkpt lat="48.97416" lon="2.09501">
        <ele>2.55</ele>
        <time>2023-04-19T08:31:29Z</time>
      </trkpt>
      <trkpt lat="48.97413" lon="2.09501">
        <ele>2.3</ele>
        <time>2023-04-19T08:31:47Z</time>
      </trkpt>
      <trkpt lat="48.97407" lon="2.09501">
        <ele>2.56</ele>
        <time>2023-04-19T08:32:07Z</time>
      </trkpt>
      <trkpt lat="48.974" lon="2.09501">
        <ele>2.77</ele>
        <time>2023-04-19T08:32:22Z</time>
      </trkpt>
      <trkpt lat="48.97397" lon="2.09499">
        <ele>2.93</ele>
        <time>2023-04-19T08:32:31Z</time>
      </trkpt>
      <trkpt lat="48.97403" lon="2.09499">
        <ele>2.54</ele>
        <time>2023-04-19T08:32:46Z</time>
      </trkpt>
      <trkpt lat="48.974" lon="2.09501">
        <ele>3.42</ele>
        <time>2023-04-19T08:32:55Z</time>
      </trkpt>
      <trkpt lat="48.97391" lon="2.09497">
        <ele>4.38</ele>
        <time>2023-04-19T08:33:05Z</time>
      </trkpt>
      <trkpt lat="48.97381" lon="2.09492">
        <ele>4.93</ele>
        <time>2023-04-19T08:33:16Z</time>
      </trkpt>
      <trkpt lat="48.97376" lon="2.09487">
        <ele>5.47</ele>
        <time>2023-04-19T08:33:22Z</time>
      </trkpt>
      <trkpt lat="48.97366" lon="2.09482">
        <ele>6.11</ele>
        <time>2023-04-19T08:33:32Z</time>
      </trkpt>
      <trkpt lat="48.97363" lon="2.0948">
        <ele>6.33</ele>
        <time>2023-04-19T08:33:37Z</time>
      </trkpt>
      <trkpt lat="48.97361" lon="2.09478">
        <ele>6.63</ele>
        <time>2023-04-19T08:33:39Z</time>
      </trkpt>
      <trkpt lat="48.97356" lon="2.09476">
        <ele>6.89</ele>
        <time>2023-04-19T08:33:43Z</time>
      </trkpt>
      <trkpt lat="48.97345" lon="2.09472">
        <ele>7.55</ele>
        <time>2023-04-19T08:33:52Z</time>
      </trkpt>
      <trkpt lat="48.97341" lon="2.09468">
        <ele>7.96</ele>
        <time>2023-04-19T08:33:56Z</time>
      </trkpt>
      <trkpt lat="48.97328" lon="2.09463">
        <ele>9.28</ele>
        <time>2023-04-19T08:34:08Z</time>
      </trkpt>
      <trkpt lat="48.97315" lon="2.0946">
        <ele>10.39</ele>
        <time>2023-04-19T08:34:18Z</time>
      </trkpt>
      <trkpt lat="48.97303" lon="2.09455">
        <ele>11.55</ele>
        <time>2023-04-19T08:34:30Z</time>
      </trkpt>
      <trkpt lat="48.973" lon="2.09452">
        <ele>12.32</ele>
        <time>2023-04-19T08:34:33Z</time>
      </trkpt>
      <trkpt lat="48.97292" lon="2.09448">
        <ele>12.15</ele>
        <time>2023-04-19T08:34:38Z</time>
      </trkpt>
      <trkpt lat="48.97278" lon="2.09443">
        <ele>12.82</ele>
        <time>2023-04-19T08:34:48Z</time>
      </trkpt>
      <trkpt lat="48.97271" lon="2.0944">
        <ele>13.63</ele>
        <time>2023-04-19T08:34:55Z</time>
      </trkpt>
      <trkpt lat="48.9726" lon="2.09439">
        <ele>14.55</ele>
        <time>2023-04-19T08:35:03Z</time>
      </trkpt>
      <trkpt lat="48.97256" lon="2.09436">
        <ele>14.59</ele>
        <time>2023-04-19T08:35:06Z</time>
      </trkpt>
      <trkpt lat="48.97248" lon="2.09432">
        <ele>15.06</ele>
        <time>2023-04-19T08:35:18Z</time>
      </trkpt>
      <trkpt lat="48.97239" lon="2.09431">
        <ele>15.01</ele>
        <time>2023-04-19T08:35:33Z</time>
      </trkpt>
      <trkpt lat="48.97234" lon="2.09427">
        <ele>15.13</ele>
        <time>2023-04-19T08:35:50Z</time>
      </trkpt>
      <trkpt lat="48.97228" lon="2.09426">
        <ele>14.89</ele>
        <time>2023-04-19T08:35:54Z</time>
      </trkpt>
      <trkpt lat="48.97226" lon="2.09424">
        <ele>15.32</ele>
        <time>2023-04-19T08:35:56Z</time>
      </trkpt>
      <trkpt lat="48.97219" lon="2.09422">
        <ele>14.9</ele>
        <time>2023-04-19T08:36:07Z</time>
      </trkpt>
      <trkpt lat="48.97216" lon="2.09422">
        <ele>15.27</ele>
        <time>2023-04-19T08:36:14Z</time>
      </trkpt>
      <trkpt lat="48.97209" lon="2.09422">
        <ele>16</ele>
        <time>2023-04-19T08:36:25Z</time>
      </trkpt>
      <trkpt lat="48.97209" lon="2.09426">
        <ele>15.99</ele>
        <time>2023-04-19T08:36:42Z</time>
      </trkpt>
      <trkpt lat="48.97211" lon="2.09429">
        <ele>16.73</ele>
        <time>2023-04-19T08:37:03Z</time>
      </trkpt>
      <trkpt lat="48.97212" lon="2.09431">
        <ele>16.55</ele>
        <time>2023-04-19T08:37:22Z</time>
      </trkpt>
      <trkpt lat="48.97212" lon="2.09431">
        <ele>16.59</ele>
        <time>2023-04-19T08:37:41Z</time>
      </trkpt>
      <trkpt lat="48.9721" lon="2.09431">
        <ele>16.71</ele>
        <time>2023-04-19T08:37:57Z</time>
      </trkpt>
      <trkpt lat="48.97209" lon="2.09432">
        <ele>16.6</ele>
        <time>2023-04-19T08:38:13Z</time>
      </trkpt>
      <trkpt lat="48.97206" lon="2.09429">
        <ele>17.08</ele>
        <time>2023-04-19T08:38:32Z</time>
      </trkpt>
      <trkpt lat="48.97208" lon="2.09425">
        <ele>16.92</ele>
        <time>2023-04-19T08:38:54Z</time>
      </trkpt>
      <trkpt lat="48.97216" lon="2.09428">
        <ele>17.42</ele>
        <time>2023-04-19T08:39:10Z</time>
      </trkpt>
      <trkpt lat="48.97215" lon="2.09427">
        <ele>17.46</ele>
        <time>2023-04-19T08:39:11Z</time>
      </trkpt>
      <trkpt lat="48.97208" lon="2.09427">
        <ele>17.52</ele>
        <time>2023-04-19T08:39:23Z</time>
      </trkpt>
      <trkpt lat="48.97209" lon="2.09425">
        <ele>18.09</ele>
        <time>2023-04-19T08:39:36Z</time>
      </trkpt>
      <trkpt lat="48.97208" lon="2.09427">
        <ele>18.57</ele>
        <time>2023-04-19T08:39:51Z</time>
      </trkpt>
      <trkpt lat="48.97206" lon="2.09425">
        <ele>18.73</ele>
        <time>2023-04-19T08:40:12Z</time>
      </trkpt>
      <trkpt lat="48.9721" lon="2.09424">
        <ele>18.78</ele>
        <time>2023-04-19T08:40:29Z</time>
      </trkpt>
      <trkpt lat="48.97206" lon="2.09423">
        <ele>18.16</ele>
        <time>2023-04-19T08:40:49Z</time>
      </trkpt>
      <trkpt lat="48.97204" lon="2.0942">
        <ele>19</ele>
        <time>2023-04-19T08:41:12Z</time>
      </trkpt>
      <trkpt lat="48.97205" lon="2.0942">
        <ele>19.56</ele>
        <time>2023-04-19T08:41:35Z</time>
      </trkpt>
      <trkpt lat="48.9721" lon="2.09419">
        <ele>19.84</ele>
        <time>2023-04-19T08:42:00Z</time>
      </trkpt>
      <trkpt lat="48.97215" lon="2.0942">
        <ele>19.97</ele>
        <time>2023-04-19T08:42:21Z</time>
      </trkpt>
      <trkpt lat="48.97216" lon="2.09426">
        <ele>20.22</ele>
        <time>2023-04-19T08:42:35Z</time>
      </trkpt>
      <trkpt lat="48.97218" lon="2.0943">
        <ele>20.52</ele>
        <time>2023-04-19T08:42:56Z</time>
      </trkpt>
      <trkpt lat="48.97219" lon="2.09433">
        <ele>20.65</ele>
        <time>2023-04-19T08:43:11Z</time>
      </trkpt>
      <trkpt lat="48.97218" lon="2.09433">
        <ele>21.1</ele>
        <time>2023-04-19T08:43:34Z</time>
      </trkpt>
      <trkpt lat="48.97212" lon="2.09432">
        <ele>21.16</ele>
        <time>2023-04-19T08:43:49Z</time>
      </trkpt>
      <trkpt lat="48.97208" lon="2.0943">
        <ele>21.89</ele>
        <time>2023-04-19T08:44:04Z</time>
      </trkpt>
      <trkpt lat="48.97212" lon="2.09432">
        <ele>21.96</ele>
        <time>2023-04-19T08:44:21Z</time>
      </trkpt>
      <trkpt lat="48.97216" lon="2.09432">
        <ele>21.68</ele>
        <time>2023-04-19T08:44:39Z</time>
      </trkpt>
      <trkpt lat="48.97214" lon="2.09437">
        <ele>21.76</ele>
        <time>2023-04-19T08:45:03Z</time>
      </trkpt>
      <trkpt lat="48.97215" lon="2.09439">
        <ele>21.56</ele>
        <time>2023-04-19T08:45:25Z</time>
      </trkpt>
      <trkpt lat="48.97218" lon="2.09438">
        <ele>21.98</ele>
        <time>2023-04-19T08:45:42Z</time>
      </trkpt>
      <trkpt lat="48.97218" lon="2.09437">
        <ele>22.02</ele>
        <time>2023-04-19T08:46:01Z</time>
      </trkpt>
      <trkpt lat="48.97218" lon="2.09436">
        <ele>22.85</ele>
        <time>2023-04-19T08:46:17Z</time>
      </trkpt>
      <trkpt lat="48.97217" lon="2.09437">
        <ele>22.72</ele>
        <time>2023-04-19T08:46:36Z</time>
      </trkpt>
      <trkpt lat="48.97218" lon="2.09436">
        <ele>22.54</ele>
        <time>2023-04-19T08:46:56Z</time>
      </trkpt>
      <trkpt lat="48.9722" lon="2.09436">
        <ele>23.23</ele>
        <time>2023-04-19T08:47:15Z</time>
      </trkpt>
      <trkpt lat="48.97218" lon="2.09437">
        <ele>23.74</ele>
        <time>2023-04-19T08:47:33Z</time>
      </trkpt>
      <trkpt lat="48.97218" lon="2.09438">
        <ele>23.52</ele>
        <time>2023-04-19T08:47:49Z</time>
      </trkpt>
      <trkpt lat="48.97218" lon="2.09435">
        <ele>24.41</ele>
        <time>2023-04-19T08:48:03Z</time>
      </trkpt>
      <trkpt lat="48.97216" lon="2.09437">
        <ele>24.12</ele>
        <time>2023-04-19T08:48:20Z</time>
      </trkpt>
      <trkpt lat="48.97215" lon="2.09438">
        <ele>23.96</ele>
        <time>2023-04-19T08:48:38Z</time>
      </trkpt>
      <trkpt lat="48.97216" lon="2.09435">
        <ele>23.9</ele>
        <time>2023-04-19T08:49:02Z</time>
      </trkpt>
      <trkpt lat="48.97218" lon="2.09433">
        <ele>24.86</ele>
        <time>2023-04-19T08:49:19Z</time>
      </trkpt>
      <trkpt lat="48.97218" lon="2.09434">
        <ele>25.17</ele>
        <time>2023-04-19T08:49:40Z</time>
      </trkpt>
      <trkpt lat="48.97216" lon="2.09433">
        <ele>25.39</ele>
        <time>2023-04-19T08:49:53Z</time>
      </trkpt>
      <trkpt lat="48.97216" lon="2.09431">
        <ele>25.26</ele>
        <time>2023-04-19T08:50:08Z</time>
      </trkpt>
      <trkpt lat="48.9722" lon="2.09433">
        <ele>25.67</ele>
        <time>2023-04-19T08:50:27Z</time>
      </trkpt>
      <trkpt lat="48.97222" lon="2.09431">
        <ele>24.77</ele>
        <time>2023-04-19T08:50:46Z</time>
      </trkpt>
      <trkpt lat="48.97219" lon="2.09429">
        <ele>25.88</ele>
        <time>2023-04-19T08:51:02Z</time>
      </trkpt>
      <trkpt lat="48.97218" lon="2.09432">
        <ele>26.29</ele>
        <time>2023-04-19T08:51:21Z</time>
      </trkpt>
      <trkpt lat="48.97218" lon="2.09435">
        <ele>25.65</ele>
        <time>2023-04-19T08:51:36Z</time>
      </trkpt>
      <trkpt lat="48.97218" lon="2.09434">
        <ele>25.81</ele>
        <time>2023-04-19T08:51:56Z</time>
      </trkpt>
      <trkpt lat="48.97214" lon="2.09431">
        <ele>26.24</ele>
        <time>2023-04-19T08:52:15Z</time>
      </trkpt>
      <trkpt lat="48.97211" lon="2.09433">
        <ele>26.53</ele>
        <time>2023-04-19T08:52:29Z</time>
      </trkpt>
      <trkpt lat="48.97211" lon="2.09434">
        <ele>26.68</ele>
        <time>2023-04-19T08:52:49Z</time>
      </trkpt>
      <trkpt lat="48.97211" lon="2.09434">
        <ele>27.03</ele>
        <time>2023-04-19T08:53:01Z</time>
      </trkpt>
      <trkpt lat="48.97212" lon="2.09433">
        <ele>26.85</ele>
        <time>2023-04-19T08:53:19Z</time>
      </trkpt>
      <trkpt lat="48.9721" lon="2.09435">
        <ele>26.93</ele>
        <time>2023-04-19T08:53:29Z</time>
      </trkpt>
      <trkpt lat="48.97211" lon="2.0943">
        <ele>27.22</ele>
        <time>2023-04-19T08:53:37Z</time>
      </trkpt>
      <trkpt lat="48.97208" lon="2.09433">
        <ele>26.95</ele>
        <time>2023-04-19T08:54:00Z</time>
      </trkpt>
      <trkpt lat="48.97206" lon="2.09437">
        <ele>27.45</ele>
        <time>2023-04-19T08:54:13Z</time>
      </trkpt>
      <trkpt lat="48.97209" lon="2.09435">
        <ele>27.5</ele>
        <time>2023-04-19T08:54:25Z</time>
      </trkpt>
      <trkpt lat="48.97202" lon="2.09439">
        <ele>27.1</ele>
        <time>2023-04-19T08:54:40Z</time>
      </trkpt>
      <trkpt lat="48.97191" lon="2.09451">
        <ele>27.63</ele>
        <time>2023-04-19T08:54:55Z</time>
      </trkpt>
      <trkpt lat="48.97174" lon="2.09471">
        <ele>27.96</ele>
        <time>2023-04-19T08:55:11Z</time>
      </trkpt>
      <trkpt lat="48.97165" lon="2.0948">
        <ele>28.23</ele>
        <time>2023-04-19T08:55:21Z</time>
      </trkpt>
      <trkpt lat="48.97152" lon="2.09497">
        <ele>27.94</ele>
        <time>2023-04-19T08:55:36Z</time>
      </trkpt>
      <trkpt lat="48.97139" lon="2.09519">
        <ele>28.85</ele>
        <time>2023-04-19T08:55:52Z</time>
      </trkpt>
      <trkpt lat="48.97124" lon="2.09541">
        <ele>29.26</ele>
        <time>2023-04-19T08:56:07Z</time>
      </trkpt>
      <trkpt lat="48.97114" lon="2.09554">
        <ele>29.27</ele>
        <time>2023-04-19T08:56:16Z</time>
      </trkpt>
      <trkpt lat="48.97101" lon="2.09573">
        <ele>29.19</ele>
        <time>2023-04-19T08:56:28Z</time>
      </trkpt>
      <trkpt lat="48.97093" lon="2.09582">
        <ele>29.14</ele>
        <time>2023-04-19T08:56:37Z</time>
      </trkpt>
      <trkpt lat="48.97077" lon="2.09602">
        <ele>29.23</ele>
        <time>2023-04-19T08:56:51Z</time>
      </trkpt>
      <trkpt lat="48.97067" lon="2.09619">
        <ele>29.13</ele>
        <time>2023-04-19T08:57:03Z</time>
      </trkpt>
      <trkpt lat="48.97053" lon="2.09637">
        <ele>29.16</ele>
        <time>2023-04-19T08:57:17Z</time>
      </trkpt>
      <trkpt lat="48.97049" lon="2.09643">
        <ele>29.08</ele>
        <time>2023-04-19T08:57:23Z</time>
      </trkpt>
      <trkpt lat="48.97035" lon="2.09659">
        <ele>29.13</ele>
        <time>2023-04-19T08:57:37Z</time>
      </trkpt>
      <trkpt lat="48.97018" lon="2.09684">
        <ele>29.16</ele>
        <time>2023-04-19T08:57:51Z</time>
      </trkpt>
      <trkpt lat="48.9701" lon="2.09696">
        <ele>29.83</ele>
        <time>2023-04-19T08:57:59Z</time>
      </trkpt>
      <trkpt lat="48.97009" lon="2.09699">
        <ele>29.4</ele>
        <time>2023-04-19T08:58:01Z</time>
      </trkpt>
      <trkpt lat="48.96994" lon="2.0972">
        <ele>29.12</ele>
        <time>2023-04-19T08:58:17Z</time>
      </trkpt>
      <trkpt lat="48.96976" lon="2.09738">
        <ele>29.24</ele>
        <time>2023-04-19T08:58:32Z</time>
      </trkpt>
      <trkpt lat="48.96963" lon="2.09755">
        <ele>28.47</ele>
        <time>2023-04-19T08:58:46Z</time>
      </trkpt>
      <trkpt lat="48.96952" lon="2.09774">
        <ele>28.66</ele>
        <time>2023-04-19T08:59:00Z</time>
      </trkpt>
      <trkpt lat="48.96934" lon="2.09797">
        <ele>28.28</ele>
        <time>2023-04-19T08:59:16Z</time>
      </trkpt>
      <trkpt lat="48.96915" lon="2.09825">
        <ele>28.09</ele>
        <time>2023-04-19T08:59:31Z</time>
      </trkpt>
      <trkpt lat="48.96914" lon="2.09826">
        <ele>28.07</ele>
        <time>2023-04-19T08:59:32Z</time>
      </trkpt>
      <trkpt lat="48.96899" lon="2.09842">
        <ele>28.12</ele>
        <time>2023-04-19T08:59:43Z</time>
      </trkpt>
      <trkpt lat="48.96898" lon="2.09844">
        <ele>28.4</ele>
        <time>2023-04-19T08:59:44Z</time>
      </trkpt>
      <trkpt lat="48.96887" lon="2.09862">
        <ele>27.95</ele>
        <time>2023-04-19T08:59:55Z</time>
      </trkpt>
      <trkpt lat="48.96875" lon="2.0988">
        <ele>27.58</ele>
        <time>2023-04-19T09:00:08Z</time>
      </trkpt>
      <trkpt lat="48.96862" lon="2.09896">
        <ele>27.95</ele>
        <time>2023-04-19T09:00:20Z</time>
      </trkpt>
      <trkpt lat="48.96849" lon="2.09917">
        <ele>27.18</ele>
        <time>2023-04-19T09:00:34Z</time>
      </trkpt>
      <trkpt lat="48.96837" lon="2.09933">
        <ele>26.93</ele>
        <time>2023-04-19T09:00:45Z</time>
      </trkpt>
      <trkpt lat="48.96832" lon="2.09939">
        <ele>27.3</ele>
        <time>2023-04-19T09:00:51Z</time>
      </trkpt>
      <trkpt lat="48.96828" lon="2.09945">
        <ele>27.09</ele>
        <time>2023-04-19T09:00:55Z</time>
      </trkpt>
      <trkpt lat="48.96825" lon="2.0995">
        <ele>27.28</ele>
        <time>2023-04-19T09:00:58Z</time>
      </trkpt>
      <trkpt lat="48.96814" lon="2.09963">
        <ele>27.56</ele>
        <time>2023-04-19T09:01:08Z</time>
      </trkpt>
      <trkpt lat="48.96802" lon="2.09975">
        <ele>27.89</ele>
        <time>2023-04-19T09:01:19Z</time>
      </trkpt>
      <trkpt lat="48.96801" lon="2.09976">
        <ele>28.38</ele>
        <time>2023-04-19T09:01:20Z</time>
      </trkpt>
      <trkpt lat="48.968" lon="2.09978">
        <ele>28.07</ele>
        <time>2023-04-19T09:01:39Z</time>
      </trkpt>
      <trkpt lat="48.96799" lon="2.09975">
        <ele>28.15</ele>
        <time>2023-04-19T09:01:53Z</time>
      </trkpt>
      <trkpt lat="48.96796" lon="2.09972">
        <ele>28.03</ele>
        <time>2023-04-19T09:01:57Z</time>
      </trkpt>
      <trkpt lat="48.96792" lon="2.09966">
        <ele>28.24</ele>
        <time>2023-04-19T09:02:01Z</time>
      </trkpt>
      <trkpt lat="48.96786" lon="2.0996">
        <ele>27.96</ele>
        <time>2023-04-19T09:02:07Z</time>
      </trkpt>
      <trkpt lat="48.96783" lon="2.09957">
        <ele>27.55</ele>
        <time>2023-04-19T09:02:11Z</time>
      </trkpt>
      <trkpt lat="48.96777" lon="2.09951">
        <ele>27.92</ele>
        <time>2023-04-19T09:02:17Z</time>
      </trkpt>
      <trkpt lat="48.96769" lon="2.09941">
        <ele>27.28</ele>
        <time>2023-04-19T09:02:26Z</time>
      </trkpt>
      <trkpt lat="48.96762" lon="2.09931">
        <ele>27.77</ele>
        <time>2023-04-19T09:02:32Z</time>
      </trkpt>
      <trkpt lat="48.96758" lon="2.09926">
        <ele>27.62</ele>
        <time>2023-04-19T09:02:35Z</time>
      </trkpt>
      <trkpt lat="48.96751" lon="2.09916">
        <ele>27.26</ele>
        <time>2023-04-19T09:02:41Z</time>
      </trkpt>
      <trkpt lat="48.96743" lon="2.09901">
        <ele>27.12</ele>
        <time>2023-04-19T09:02:49Z</time>
      </trkpt>
      <trkpt lat="48.96726" lon="2.09887">
        <ele>26.87</ele>
        <time>2023-04-19T09:03:01Z</time>
      </trkpt>
      <trkpt lat="48.96712" lon="2.09875">
        <ele>26.68</ele>
        <time>2023-04-19T09:03:10Z</time>
      </trkpt>
      <trkpt lat="48.96701" lon="2.0986">
        <ele>26.11</ele>
        <time>2023-04-19T09:03:19Z</time>
      </trkpt>
      <trkpt lat="48.96699" lon="2.09854">
        <ele>26.48</ele>
        <time>2023-04-19T09:03:22Z</time>
      </trkpt>
      <trkpt lat="48.96685" lon="2.09839">
        <ele>26.64</ele>
        <time>2023-04-19T09:03:33Z</time>
      </trkpt>
      <trkpt lat="48.96679" lon="2.0983">
        <ele>25.98</ele>
        <time>2023-04-19T09:03:39Z</time>
      </trkpt>
      <trkpt lat="48.96673" lon="2.09826">
        <ele>25.77</ele>
        <time>2023-04-19T09:03:45Z</time>
      </trkpt>
      <trkpt lat="48.96656" lon="2.09808">
        <ele>25.63</ele>
        <time>2023-04-19T09:03:58Z</time>
      </trkpt>
      <trkpt lat="48.96644" lon="2.09792">
        <ele>25.02</ele>
        <time>2023-04-19T09:04:08Z</time>
      </trkpt>
      <trkpt lat="48.96632" lon="2.09774">
        <ele>24.52</ele>
        <time>2023-04-19T09:04:19Z</time>
      </trkpt>
      <trkpt lat="48.96628" lon="2.09766">
        <ele>24.83</ele>
        <time>2023-04-19T09:04:23Z</time>
      </trkpt>
      <trkpt lat="48.96623" lon="2.09759">
        <ele>24.34</ele>
        <time>2023-04-19T09:04:29Z</time>
      </trkpt>
      <trkpt lat="48.9662" lon="2.09757">
        <ele>23.97</ele>
        <time>2023-04-19T09:04:31Z</time>
      </trkpt>
      <trkpt lat="48.96612" lon="2.09748">
        <ele>24.19</ele>
        <time>2023-04-19T09:04:37Z</time>
      </trkpt>
      <trkpt lat="48.96607" lon="2.09742">
        <ele>23.77</ele>
        <time>2023-04-19T09:04:41Z</time>
      </trkpt>
      <trkpt lat="48.96593" lon="2.0973">
        <ele>23.37</ele>
        <time>2023-04-19T09:04:52Z</time>
      </trkpt>
      <trkpt lat="48.96586" lon="2.09718">
        <ele>23.53</ele>
        <time>2023-04-19T09:04:59Z</time>
      </trkpt>
      <trkpt lat="48.96579" lon="2.09705">
        <ele>23.41</ele>
        <time>2023-04-19T09:05:06Z</time>
      </trkpt>
      <trkpt lat="48.96577" lon="2.09701">
        <ele>23.16</ele>
        <time>2023-04-19T09:05:08Z</time>
      </trkpt>
      <trkpt lat="48.96567" lon="2.09688">
        <ele>22.86</ele>
        <time>2023-04-19T09:05:18Z</time>
      </trkpt>
      <trkpt lat="48.96553" lon="2.09673">
        <ele>22.52</ele>
        <time>2023-04-19T09:05:29Z</time>
      </trkpt>
      <trkpt lat="48.96539" lon="2.09655">
        <ele>22.37</ele>
        <time>2023-04-19T09:05:42Z</time>
      </trkpt>
      <trkpt lat="48.96529" lon="2.09645">
        <ele>22.37</ele>
        <time>2023-04-19T09:05:52Z</time>
      </trkpt>
      <trkpt lat="48.96507" lon="2.09621">
        <ele>22.14</ele>
        <time>2023-04-19T09:06:07Z</time>
      </trkpt>
      <trkpt lat="48.96497" lon="2.09609">
        <ele>22.59</ele>
        <time>2023-04-19T09:06:17Z</time>
      </trkpt>
      <trkpt lat="48.96496" lon="2.09606">
        <ele>21.89</ele>
        <time>2023-04-19T09:06:19Z</time>
      </trkpt>
      <trkpt lat="48.9649" lon="2.09599">
        <ele>22.1</ele>
        <time>2023-04-19T09:06:24Z</time>
      </trkpt>
      <trkpt lat="48.96483" lon="2.09587">
        <ele>21.7</ele>
        <time>2023-04-19T09:06:30Z</time>
      </trkpt>
      <trkpt lat="48.96481" lon="2.09585">
        <ele>21.79</ele>
        <time>2023-04-19T09:06:32Z</time>
      </trkpt>
      <trkpt lat="48.96471" lon="2.09585">
        <ele>21.96</ele>
        <time>2023-04-19T09:06:42Z</time>
      </trkpt>
      <trkpt lat="48.96469" lon="2.09591">
        <ele>21.96</ele>
        <time>2023-04-19T09:06:57Z</time>
      </trkpt>
      <trkpt lat="48.96467" lon="2.09589">
        <ele>22.31</ele>
        <time>2023-04-19T09:07:13Z</time>
      </trkpt>
      <trkpt lat="48.96469" lon="2.09603">
        <ele>22.24</ele>
        <time>2023-04-19T09:07:27Z</time>
      </trkpt>
      <trkpt lat="48.96471" lon="2.09612">
        <ele>21.59</ele>
        <time>2023-04-19T09:07:34Z</time>
      </trkpt>
      <trkpt lat="48.96473" lon="2.09619">
        <ele>21.4</ele>
        <time>2023-04-19T09:07:39Z</time>
      </trkpt>
      <trkpt lat="48.96478" lon="2.09639">
        <ele>21.73</ele>
        <time>2023-04-19T09:07:50Z</time>
      </trkpt>
      <trkpt lat="48.9648" lon="2.09663">
        <ele>22.18</ele>
        <time>2023-04-19T09:08:01Z</time>
      </trkpt>
      <trkpt lat="48.96485" lon="2.09682">
        <ele>22.44</ele>
        <time>2023-04-19T09:08:11Z</time>
      </trkpt>
      <trkpt lat="48.96492" lon="2.09701">
        <ele>22.44</ele>
        <time>2023-04-19T09:08:20Z</time>
      </trkpt>
      <trkpt lat="48.96493" lon="2.09704">
        <ele>22.43</ele>
        <time>2023-04-19T09:08:22Z</time>
      </trkpt>
      <trkpt lat="48.96492" lon="2.09717">
        <ele>22.36</ele>
        <time>2023-04-19T09:08:27Z</time>
      </trkpt>
      <trkpt lat="48.96498" lon="2.09745">
        <ele>22.68</ele>
        <time>2023-04-19T09:08:38Z</time>
      </trkpt>
      <trkpt lat="48.96498" lon="2.09754">
        <ele>22.66</ele>
        <time>2023-04-19T09:08:43Z</time>
      </trkpt>
      <trkpt lat="48.96502" lon="2.09771">
        <ele>22.89</ele>
        <time>2023-04-19T09:08:49Z</time>
      </trkpt>
      <trkpt lat="48.96506" lon="2.09782">
        <ele>23.04</ele>
        <time>2023-04-19T09:08:56Z</time>
      </trkpt>
      <trkpt lat="48.96508" lon="2.09789">
        <ele>23.11</ele>
        <time>2023-04-19T09:08:59Z</time>
      </trkpt>
      <trkpt lat="48.96508" lon="2.09807">
        <ele>23.12</ele>
        <time>2023-04-19T09:09:05Z</time>
      </trkpt>
      <trkpt lat="48.96511" lon="2.09818">
        <ele>22.72</ele>
        <time>2023-04-19T09:09:09Z</time>
      </trkpt>
      <trkpt lat="48.96512" lon="2.09823">
        <ele>22.82</ele>
        <time>2023-04-19T09:09:11Z</time>
      </trkpt>
      <trkpt lat="48.96516" lon="2.09851">
        <ele>22.95</ele>
        <time>2023-04-19T09:09:23Z</time>
      </trkpt>
      <trkpt lat="48.96521" lon="2.09864">
        <ele>23.28</ele>
        <time>2023-04-19T09:09:31Z</time>
      </trkpt>
      <trkpt lat="48.96525" lon="2.09891">
        <ele>23.19</ele>
        <time>2023-04-19T09:09:42Z</time>
      </trkpt>
      <trkpt lat="48.96528" lon="2.09914">
        <ele>23.29</ele>
        <time>2023-04-19T09:09:53Z</time>
      </trkpt>
      <trkpt lat="48.96532" lon="2.09933">
        <ele>23.49</ele>
        <time>2023-04-19T09:10:02Z</time>
      </trkpt>
      <trkpt lat="48.96535" lon="2.09944">
        <ele>23.23</ele>
        <time>2023-04-19T09:10:07Z</time>
      </trkpt>
      <trkpt lat="48.96539" lon="2.09958">
        <ele>22.95</ele>
        <time>2023-04-19T09:10:13Z</time>
      </trkpt>
      <trkpt lat="48.96543" lon="2.09982">
        <ele>23.56</ele>
        <time>2023-04-19T09:10:24Z</time>
      </trkpt>
      <trkpt lat="48.96542" lon="2.09987">
        <ele>23.64</ele>
        <time>2023-04-19T09:10:27Z</time>
      </trkpt>
      <trkpt lat="48.96541" lon="2.09996">
        <ele>23.77</ele>
        <time>2023-04-19T09:10:31Z</time>
      </trkpt>
      <trkpt lat="48.96541" lon="2.10006">
        <ele>23.84</ele>
        <time>2023-04-19T09:10:35Z</time>
      </trkpt>
      <trkpt lat="48.96545" lon="2.10018">
        <ele>23.73</ele>
        <time>2023-04-19T09:10:40Z</time>
      </trkpt>
      <trkpt lat="48.9655" lon="2.10049">
        <ele>23.18</ele>
        <time>2023-04-19T09:10:55Z</time>
      </trkpt>
      <trkpt lat="48.9655" lon="2.10056">
        <ele>23.64</ele>
        <time>2023-04-19T09:10:58Z</time>
      </trkpt>
      <trkpt lat="48.96554" lon="2.1008">
        <ele>23.24</ele>
        <time>2023-04-19T09:11:10Z</time>
      </trkpt>
      <trkpt lat="48.96559" lon="2.10097">
        <ele>23.67</ele>
        <time>2023-04-19T09:11:18Z</time>
      </trkpt>
      <trkpt lat="48.9656" lon="2.10101">
        <ele>23.32</ele>
        <time>2023-04-19T09:11:21Z</time>
      </trkpt>
      <trkpt lat="48.9656" lon="2.10109">
        <ele>23.08</ele>
        <time>2023-04-19T09:11:24Z</time>
      </trkpt>
      <trkpt lat="48.96563" lon="2.10131">
        <ele>23.54</ele>
        <time>2023-04-19T09:11:32Z</time>
      </trkpt>
      <trkpt lat="48.96567" lon="2.10149">
        <ele>23</ele>
        <time>2023-04-19T09:11:40Z</time>
      </trkpt>
      <trkpt lat="48.9657" lon="2.10154">
        <ele>23.24</ele>
        <time>2023-04-19T09:11:43Z</time>
      </trkpt>
      <trkpt lat="48.96574" lon="2.10178">
        <ele>23.17</ele>
        <time>2023-04-19T09:11:54Z</time>
      </trkpt>
      <trkpt lat="48.96581" lon="2.10201">
        <ele>22.95</ele>
        <time>2023-04-19T09:12:05Z</time>
      </trkpt>
      <trkpt lat="48.96582" lon="2.10202">
        <ele>22.8</ele>
        <time>2023-04-19T09:12:06Z</time>
      </trkpt>
      <trkpt lat="48.96581" lon="2.10211">
        <ele>23.19</ele>
        <time>2023-04-19T09:12:10Z</time>
      </trkpt>
      <trkpt lat="48.96585" lon="2.10224">
        <ele>23.43</ele>
        <time>2023-04-19T09:12:16Z</time>
      </trkpt>
      <trkpt lat="48.96585" lon="2.10228">
        <ele>23.42</ele>
        <time>2023-04-19T09:12:18Z</time>
      </trkpt>
      <trkpt lat="48.96587" lon="2.10244">
        <ele>23.44</ele>
        <time>2023-04-19T09:12:27Z</time>
      </trkpt>
      <trkpt lat="48.96586" lon="2.10249">
        <ele>23.08</ele>
        <time>2023-04-19T09:12:30Z</time>
      </trkpt>
      <trkpt lat="48.96584" lon="2.10252">
        <ele>23.03</ele>
        <time>2023-04-19T09:12:49Z</time>
      </trkpt>
      <trkpt lat="48.96584" lon="2.10253">
        <ele>23.65</ele>
        <time>2023-04-19T09:13:09Z</time>
      </trkpt>
      <trkpt lat="48.96576" lon="2.10262">
        <ele>23.73</ele>
        <time>2023-04-19T09:13:23Z</time>
      </trkpt>
      <trkpt lat="48.96569" lon="2.10268">
        <ele>23.53</ele>
        <time>2023-04-19T09:13:31Z</time>
      </trkpt>
      <trkpt lat="48.96552" lon="2.10289">
        <ele>23.38</ele>
        <time>2023-04-19T09:13:45Z</time>
      </trkpt>
      <trkpt lat="48.96535" lon="2.10311">
        <ele>24.43</ele>
        <time>2023-04-19T09:14:00Z</time>
      </trkpt>
      <trkpt lat="48.96534" lon="2.10312">
        <ele>24.04</ele>
        <time>2023-04-19T09:14:01Z</time>
      </trkpt>
      <trkpt lat="48.9653" lon="2.10316">
        <ele>24.02</ele>
        <time>2023-04-19T09:14:04Z</time>
      </trkpt>
      <trkpt lat="48.96513" lon="2.10334">
        <ele>24.19</ele>
        <time>2023-04-19T09:14:20Z</time>
      </trkpt>
      <trkpt lat="48.96498" lon="2.10346">
        <ele>23.66</ele>
        <time>2023-04-19T09:14:35Z</time>
      </trkpt>
      <trkpt lat="48.96482" lon="2.10367">
        <ele>23.75</ele>
        <time>2023-04-19T09:14:47Z</time>
      </trkpt>
      <trkpt lat="48.9647" lon="2.1038">
        <ele>24.23</ele>
        <time>2023-04-19T09:14:58Z</time>
      </trkpt>
      <trkpt lat="48.96456" lon="2.10403">
        <ele>24.05</ele>
        <time>2023-04-19T09:15:12Z</time>
      </trkpt>
      <trkpt lat="48.9644" lon="2.10425">
        <ele>24.41</ele>
        <time>2023-04-19T09:15:25Z</time>
      </trkpt>
      <trkpt lat="48.96437" lon="2.10427">
        <ele>24.42</ele>
        <time>2023-04-19T09:15:28Z</time>
      </trkpt>
      <trkpt lat="48.96428" lon="2.10443">
        <ele>24.69</ele>
        <time>2023-04-19T09:15:37Z</time>
      </trkpt>
      <trkpt lat="48.96425" lon="2.1046">
        <ele>26.53</ele>
        <time>2023-04-19T09:15:48Z</time>
      </trkpt>
      <trkpt lat="48.96424" lon="2.10467">
        <ele>26.45</ele>
        <time>2023-04-19T09:15:50Z</time>
      </trkpt>
      <trkpt lat="48.96419" lon="2.10492">
        <ele>26.44</ele>
        <time>2023-04-19T09:16:04Z</time>
      </trkpt>
      <trkpt lat="48.96418" lon="2.10517">
        <ele>25.61</ele>
        <time>2023-04-19T09:16:16Z</time>
      </trkpt>
      <trkpt lat="48.96418" lon="2.10549">
        <ele>25.53</ele>
        <time>2023-04-19T09:16:33Z</time>
      </trkpt>
      <trkpt lat="48.96419" lon="2.10581">
        <ele>25.1</ele>
        <time>2023-04-19T09:16:48Z</time>
      </trkpt>
      <trkpt lat="48.96417" lon="2.10589">
        <ele>25.19</ele>
        <time>2023-04-19T09:16:52Z</time>
      </trkpt>
      <trkpt lat="48.96418" lon="2.10611">
        <ele>24.12</ele>
        <time>2023-04-19T09:17:01Z</time>
      </trkpt>
      <trkpt lat="48.96418" lon="2.10648">
        <ele>24.19</ele>
        <time>2023-04-19T09:17:16Z</time>
      </trkpt>
      <trkpt lat="48.96416" lon="2.10656">
        <ele>23.95</ele>
        <time>2023-04-19T09:17:19Z</time>
      </trkpt>
      <trkpt lat="48.96414" lon="2.1069">
        <ele>23.81</ele>
        <time>2023-04-19T09:17:34Z</time>
      </trkpt>
      <trkpt lat="48.96413" lon="2.10694">
        <ele>23.92</ele>
        <time>2023-04-19T09:17:36Z</time>
      </trkpt>
      <trkpt lat="48.96407" lon="2.1071">
        <ele>23.83</ele>
        <time>2023-04-19T09:17:42Z</time>
      </trkpt>
      <trkpt lat="48.96395" lon="2.10739">
        <ele>23.23</ele>
        <time>2023-04-19T09:17:59Z</time>
      </trkpt>
      <trkpt lat="48.96388" lon="2.10754">
        <ele>23.7</ele>
        <time>2023-04-19T09:18:08Z</time>
      </trkpt>
      <trkpt lat="48.96388" lon="2.10766">
        <ele>23.01</ele>
        <time>2023-04-19T09:18:12Z</time>
      </trkpt>
      <trkpt lat="48.96386" lon="2.10791">
        <ele>22.82</ele>
        <time>2023-04-19T09:18:24Z</time>
      </trkpt>
      <trkpt lat="48.96378" lon="2.10817">
        <ele>22.7</ele>
        <time>2023-04-19T09:18:38Z</time>
      </trkpt>
      <trkpt lat="48.96376" lon="2.10832">
        <ele>22.64</ele>
        <time>2023-04-19T09:18:45Z</time>
      </trkpt>
      <trkpt lat="48.96365" lon="2.10862">
        <ele>22.89</ele>
        <time>2023-04-19T09:18:58Z</time>
      </trkpt>
      <trkpt lat="48.96357" lon="2.10887">
        <ele>22.14</ele>
        <time>2023-04-19T09:19:13Z</time>
      </trkpt>
      <trkpt lat="48.96355" lon="2.10912">
        <ele>22.01</ele>
        <time>2023-04-19T09:19:24Z</time>
      </trkpt>
      <trkpt lat="48.96354" lon="2.10934">
        <ele>22.2</ele>
        <time>2023-04-19T09:19:40Z</time>
      </trkpt>
      <trkpt lat="48.96354" lon="2.10935">
        <ele>21.92</ele>
        <time>2023-04-19T09:19:42Z</time>
      </trkpt>
      <trkpt lat="48.9635" lon="2.1093">
        <ele>21.29</ele>
        <time>2023-04-19T09:20:04Z</time>
      </trkpt>
      <trkpt lat="48.96346" lon="2.10925">
        <ele>22.04</ele>
        <time>2023-04-19T09:20:25Z</time>
      </trkpt>
      <trkpt lat="48.96344" lon="2.1093">
        <ele>21.81</ele>
        <time>2023-04-19T09:20:47Z</time>
      </trkpt>
      <trkpt lat="48.96343" lon="2.10931">
        <ele>22.34</ele>
        <time>2023-04-19T09:21:06Z</time>
      </trkpt>
      <trkpt lat="48.96352" lon="2.10939">
        <ele>22.08</ele>
        <time>2023-04-19T09:21:18Z</time>
      </trkpt>
      <trkpt lat="48.96366" lon="2.10947">
        <ele>22.63</ele>
        <time>2023-04-19T09:21:31Z</time>
      </trkpt>
      <trkpt lat="48.96381" lon="2.10954">
        <ele>22.6</ele>
        <time>2023-04-19T09:21:42Z</time>
      </trkpt>
      <trkpt lat="48.96384" lon="2.10955">
        <ele>22.65</ele>
        <time>2023-04-19T09:21:44Z</time>
      </trkpt>
      <trkpt lat="48.96395" lon="2.10965">
        <ele>22.4</ele>
        <time>2023-04-19T09:21:55Z</time>
      </trkpt>
      <trkpt lat="48.96409" lon="2.10977">
        <ele>22.87</ele>
        <time>2023-04-19T09:22:08Z</time>
      </trkpt>
      <trkpt lat="48.96427" lon="2.10985">
        <ele>22.91</ele>
        <time>2023-04-19T09:22:18Z</time>
      </trkpt>
      <trkpt lat="48.96441" lon="2.10991">
        <ele>22.96</ele>
        <time>2023-04-19T09:22:27Z</time>
      </trkpt>
      <trkpt lat="48.96459" lon="2.11003">
        <ele>22.46</ele>
        <time>2023-04-19T09:22:43Z</time>
      </trkpt>
      <trkpt lat="48.96477" lon="2.11013">
        <ele>22.87</ele>
        <time>2023-04-19T09:22:56Z</time>
      </trkpt>
      <trkpt lat="48.9649" lon="2.11026">
        <ele>22.88</ele>
        <time>2023-04-19T09:23:10Z</time>
      </trkpt>
      <trkpt lat="48.96501" lon="2.11033">
        <ele>23.03</ele>
        <time>2023-04-19T09:23:17Z</time>
      </trkpt>
      <trkpt lat="48.96522" lon="2.11045">
        <ele>23.02</ele>
        <time>2023-04-19T09:23:32Z</time>
      </trkpt>
      <trkpt lat="48.96525" lon="2.11048">
        <ele>23.1</ele>
        <time>2023-04-19T09:23:35Z</time>
      </trkpt>
      <trkpt lat="48.96547" lon="2.11065">
        <ele>22.84</ele>
        <time>2023-04-19T09:23:52Z</time>
      </trkpt>
      <trkpt lat="48.9655" lon="2.11085">
        <ele>22.82</ele>
        <time>2023-04-19T09:24:06Z</time>
      </trkpt>
      <trkpt lat="48.9655" lon="2.11103">
        <ele>22.49</ele>
        <time>2023-04-19T09:24:15Z</time>
      </trkpt>
      <trkpt lat="48.9655" lon="2.11129">
        <ele>23.49</ele>
        <time>2023-04-19T09:24:27Z</time>
      </trkpt>
      <trkpt lat="48.96545" lon="2.11156">
        <ele>22.76</ele>
        <time>2023-04-19T09:24:39Z</time>
      </trkpt>
      <trkpt lat="48.96544" lon="2.11161">
        <ele>22.61</ele>
        <time>2023-04-19T09:24:42Z</time>
      </trkpt>
      <trkpt lat="48.96544" lon="2.11166">
        <ele>22.43</ele>
        <time>2023-04-19T09:24:45Z</time>
      </trkpt>
      <trkpt lat="48.96537" lon="2.11187">
        <ele>22.35</ele>
        <time>2023-04-19T09:24:54Z</time>
      </trkpt>
      <trkpt lat="48.96529" lon="2.11217">
        <ele>23.25</ele>
        <time>2023-04-19T09:25:09Z</time>
      </trkpt>
      <trkpt lat="48.96525" lon="2.11249">
        <ele>23.1</ele>
        <time>2023-04-19T09:25:25Z</time>
      </trkpt>
      <trkpt lat="48.96518" lon="2.11276">
        <ele>22.86</ele>
        <time>2023-04-19T09:25:38Z</time>
      </trkpt>
      <trkpt lat="48.96513" lon="2.11301">
        <ele>23.15</ele>
        <time>2023-04-19T09:25:49Z</time>
      </trkpt>
      <trkpt lat="48.96511" lon="2.11331">
        <ele>22.69</ele>
        <time>2023-04-19T09:26:01Z</time>
      </trkpt>
      <trkpt lat="48.96503" lon="2.11359">
        <ele>22.31</ele>
        <time>2023-04-19T09:26:14Z</time>
      </trkpt>
      <trkpt lat="48.96501" lon="2.11365">
        <ele>22.27</ele>
        <time>2023-04-19T09:26:16Z</time>
      </trkpt>
      <trkpt lat="48.96494" lon="2.11399">
        <ele>23.27</ele>
        <time>2023-04-19T09:26:31Z</time>
      </trkpt>
      <trkpt lat="48.96494" lon="2.11402">
        <ele>23.32</ele>
        <time>2023-04-19T09:26:32Z</time>
      </trkpt>
      <trkpt lat="48.96497" lon="2.11422">
        <ele>23.5</ele>
        <time>2023-04-19T09:26:43Z</time>
      </trkpt>
      <trkpt lat="48.96488" lon="2.11448">
        <ele>23.68</ele>
        <time>2023-04-19T09:26:56Z</time>
      </trkpt>
      <trkpt lat="48.96482" lon="2.11475">
        <ele>24.34</ele>
        <time>2023-04-19T09:27:10Z</time>
      </trkpt>
      <trkpt lat="48.96478" lon="2.11498">
        <ele>25.38</ele>
        <time>2023-04-19T09:27:23Z</time>
      </trkpt>
      <trkpt lat="48.9647" lon="2.11519">
        <ele>25.47</ele>
        <time>2023-04-19T09:27:34Z</time>
      </trkpt>
      <trkpt lat="48.96461" lon="2.11554">
        <ele>25.67</ele>
        <time>2023-04-19T09:27:48Z</time>
      </trkpt>
      <trkpt lat="48.96459" lon="2.11585">
        <ele>25.64</ele>
        <time>2023-04-19T09:28:00Z</time>
      </trkpt>
      <trkpt lat="48.96457" lon="2.11607">
        <ele>25.15</ele>
        <time>2023-04-19T09:28:13Z</time>
      </trkpt>
      <trkpt lat="48.96456" lon="2.1163">
        <ele>25.23</ele>
        <time>2023-04-19T09:28:27Z</time>
      </trkpt>
      <trkpt lat="48.96454" lon="2.11662">
        <ele>25.76</ele>
        <time>2023-04-19T09:28:41Z</time>
      </trkpt>
      <trkpt lat="48.96456" lon="2.11683">
        <ele>25.77</ele>
        <time>2023-04-19T09:28:50Z</time>
      </trkpt>
      <trkpt lat="48.96464" lon="2.11702">
        <ele>25.32</ele>
        <time>2023-04-19T09:29:00Z</time>
      </trkpt>
      <trkpt lat="48.96467" lon="2.1171">
        <ele>25.76</ele>
        <time>2023-04-19T09:29:07Z</time>
      </trkpt>
      <trkpt lat="48.96467" lon="2.11718">
        <ele>24.8</ele>
        <time>2023-04-19T09:29:25Z</time>
      </trkpt>
      <trkpt lat="48.96472" lon="2.11737">
        <ele>24.93</ele>
        <time>2023-04-19T09:29:41Z</time>
      </trkpt>
      <trkpt lat="48.96473" lon="2.11739">
        <ele>24.41</ele>
        <time>2023-04-19T09:29:43Z</time>
      </trkpt>
      <trkpt lat="48.96474" lon="2.11743">
        <ele>24.93</ele>
        <time>2023-04-19T09:29:46Z</time>
      </trkpt>
      <trkpt lat="48.96474" lon="2.11759">
        <ele>25.4</ele>
        <time>2023-04-19T09:29:56Z</time>
      </trkpt>
      <trkpt lat="48.96472" lon="2.1177">
        <ele>26.03</ele>
        <time>2023-04-19T09:30:10Z</time>
      </trkpt>
      <trkpt lat="48.96468" lon="2.11774">
        <ele>25.71</ele>
        <time>2023-04-19T09:30:31Z</time>
      </trkpt>
      <trkpt lat="48.96468" lon="2.11787">
        <ele>25.16</ele>
        <time>2023-04-19T09:30:45Z</time>
      </trkpt>
      <trkpt lat="48.96463" lon="2.11795">
        <ele>25.6</ele>
        <time>2023-04-19T09:30:50Z</time>
      </trkpt>
      <trkpt lat="48.96454" lon="2.1181">
        <ele>25.08</ele>
        <time>2023-04-19T09:31:00Z</time>
      </trkpt>
      <trkpt lat="48.96449" lon="2.11823">
        <ele>25.82</ele>
        <time>2023-04-19T09:31:08Z</time>
      </trkpt>
      <trkpt lat="48.9645" lon="2.11829">
        <ele>25.12</ele>
        <time>2023-04-19T09:31:13Z</time>
      </trkpt>
      <trkpt lat="48.96452" lon="2.11831">
        <ele>25.66</ele>
        <time>2023-04-19T09:31:15Z</time>
      </trkpt>
      <trkpt lat="48.9646" lon="2.11843">
        <ele>24.37</ele>
        <time>2023-04-19T09:31:23Z</time>
      </trkpt>
      <trkpt lat="48.96466" lon="2.11853">
        <ele>23.89</ele>
        <time>2023-04-19T09:31:30Z</time>
      </trkpt>
      <trkpt lat="48.96468" lon="2.11858">
        <ele>23.73</ele>
        <time>2023-04-19T09:31:33Z</time>
      </trkpt>
      <trkpt lat="48.96472" lon="2.11866">
        <ele>23.8</ele>
        <time>2023-04-19T09:31:38Z</time>
      </trkpt>
      <trkpt lat="48.96474" lon="2.11868">
        <ele>23.21</ele>
        <time>2023-04-19T09:31:40Z</time>
      </trkpt>
      <trkpt lat="48.96477" lon="2.11873">
        <ele>23.07</ele>
        <time>2023-04-19T09:31:43Z</time>
      </trkpt>
      <trkpt lat="48.96478" lon="2.11894">
        <ele>22.29</ele>
        <time>2023-04-19T09:31:51Z</time>
      </trkpt>
      <trkpt lat="48.96478" lon="2.11899">
        <ele>22.64</ele>
        <time>2023-04-19T09:31:53Z</time>
      </trkpt>
      <trkpt lat="48.96484" lon="2.11916">
        <ele>22.19</ele>
        <time>2023-04-19T09:32:02Z</time>
      </trkpt>
      <trkpt lat="48.96486" lon="2.1192">
        <ele>22.37</ele>
        <time>2023-04-19T09:32:05Z</time>
      </trkpt>
      <trkpt lat="48.96488" lon="2.1193">
        <ele>22.19</ele>
        <time>2023-04-19T09:32:10Z</time>
      </trkpt>
      <trkpt lat="48.9649" lon="2.11933">
        <ele>22.47</ele>
        <time>2023-04-19T09:32:12Z</time>
      </trkpt>
      <trkpt lat="48.96498" lon="2.11951">
        <ele>21.72</ele>
        <time>2023-04-19T09:32:24Z</time>
      </trkpt>
      <trkpt lat="48.96507" lon="2.11973">
        <ele>21.27</ele>
        <time>2023-04-19T09:32:37Z</time>
      </trkpt>
      <trkpt lat="48.96513" lon="2.1199">
        <ele>20.31</ele>
        <time>2023-04-19T09:32:44Z</time>
      </trkpt>
      <trkpt lat="48.96518" lon="2.12003">
        <ele>20.03</ele>
        <time>2023-04-19T09:32:51Z</time>
      </trkpt>
      <trkpt lat="48.96524" lon="2.12019">
        <ele>18.99</ele>
        <time>2023-04-19T09:33:00Z</time>
      </trkpt>
      <trkpt lat="48.96525" lon="2.12021">
        <ele>19.81</ele>
        <time>2023-04-19T09:33:01Z</time>
      </trkpt>
      <trkpt lat="48.96531" lon="2.12042">
        <ele>19.09</ele>
        <time>2023-04-19T09:33:13Z</time>
      </trkpt>
      <trkpt lat="48.96532" lon="2.12043">
        <ele>19</ele>
        <time>2023-04-19T09:33:14Z</time>
      </trkpt>
      <trkpt lat="48.96539" lon="2.12056">
        <ele>18.68</ele>
        <time>2023-04-19T09:33:21Z</time>
      </trkpt>
      <trkpt lat="48.96541" lon="2.12062">
        <ele>18.71</ele>
        <time>2023-04-19T09:33:24Z</time>
      </trkpt>
      <trkpt lat="48.96542" lon="2.1207">
        <ele>18.76</ele>
        <time>2023-04-19T09:33:27Z</time>
      </trkpt>
      <trkpt lat="48.96549" lon="2.12086">
        <ele>17.92</ele>
        <time>2023-04-19T09:33:35Z</time>
      </trkpt>
      <trkpt lat="48.96557" lon="2.12095">
        <ele>17.76</ele>
        <time>2023-04-19T09:33:41Z</time>
      </trkpt>
      <trkpt lat="48.96559" lon="2.12102">
        <ele>17.38</ele>
        <time>2023-04-19T09:33:44Z</time>
      </trkpt>
      <trkpt lat="48.96565" lon="2.1212">
        <ele>17.3</ele>
        <time>2023-04-19T09:33:53Z</time>
      </trkpt>
      <trkpt lat="48.96566" lon="2.12122">
        <ele>17.12</ele>
        <time>2023-04-19T09:33:54Z</time>
      </trkpt>
      <trkpt lat="48.96576" lon="2.12138">
        <ele>16.86</ele>
        <time>2023-04-19T09:34:04Z</time>
      </trkpt>
      <trkpt lat="48.96584" lon="2.12165">
        <ele>16.25</ele>
        <time>2023-04-19T09:34:16Z</time>
      </trkpt>
      <trkpt lat="48.96588" lon="2.12167">
        <ele>16.08</ele>
        <time>2023-04-19T09:34:18Z</time>
      </trkpt>
      <trkpt lat="48.9659" lon="2.12175">
        <ele>16.26</ele>
        <time>2023-04-19T09:34:22Z</time>
      </trkpt>
      <trkpt lat="48.96591" lon="2.1218">
        <ele>15.68</ele>
        <time>2023-04-19T09:34:24Z</time>
      </trkpt>
      <trkpt lat="48.966" lon="2.12207">
        <ele>15.16</ele>
        <time>2023-04-19T09:34:37Z</time>
      </trkpt>
      <trkpt lat="48.96605" lon="2.12224">
        <ele>15.12</ele>
        <time>2023-04-19T09:34:48Z</time>
      </trkpt>
      <trkpt lat="48.96605" lon="2.12228">
        <ele>15.15</ele>
        <time>2023-04-19T09:34:53Z</time>
      </trkpt>
      <trkpt lat="48.96611" lon="2.12236">
        <ele>14.96</ele>
        <time>2023-04-19T09:35:14Z</time>
      </trkpt>
      <trkpt lat="48.9661" lon="2.12237">
        <ele>14.69</ele>
        <time>2023-04-19T09:35:35Z</time>
      </trkpt>
      <trkpt lat="48.96616" lon="2.12237">
        <ele>14.8</ele>
        <time>2023-04-19T09:35:53Z</time>
      </trkpt>
      <trkpt lat="48.96617" lon="2.12238">
        <ele>14.92</ele>
        <time>2023-04-19T09:36:16Z</time>
      </trkpt>
      <trkpt lat="48.96614" lon="2.1224">
        <ele>15.03</ele>
        <time>2023-04-19T09:36:33Z</time>
      </trkpt>
      <trkpt lat="48.96601" lon="2.12247">
        <ele>15.29</ele>
        <time>2023-04-19T09:36:45Z</time>
      </trkpt>
      <trkpt lat="48.96583" lon="2.1226">
        <ele>15.33</ele>
        <time>2023-04-19T09:36:59Z</time>
      </trkpt>
      <trkpt lat="48.96569" lon="2.12271">
        <ele>15.82</ele>
        <time>2023-04-19T09:37:12Z</time>
      </trkpt>
      <trkpt lat="48.96556" lon="2.12292">
        <ele>15.58</ele>
        <time>2023-04-19T09:37:28Z</time>
      </trkpt>
      <trkpt lat="48.96539" lon="2.12309">
        <ele>15.29</ele>
        <time>2023-04-19T09:37:42Z</time>
      </trkpt>
      <trkpt lat="48.96522" lon="2.12326">
        <ele>15.41</ele>
        <time>2023-04-19T09:37:57Z</time>
      </trkpt>
      <trkpt lat="48.96501" lon="2.12351">
        <ele>15.86</ele>
        <time>2023-04-19T09:38:12Z</time>
      </trkpt>
      <trkpt lat="48.96478" lon="2.12369">
        <ele>16.2</ele>
        <time>2023-04-19T09:38:28Z</time>
      </trkpt>
      <trkpt lat="48.96458" lon="2.12381">
        <ele>17</ele>
        <time>2023-04-19T09:38:45Z</time>
      </trkpt>
      <trkpt lat="48.96445" lon="2.12387">
        <ele>17.03</ele>
        <time>2023-04-19T09:38:56Z</time>
      </trkpt>
      <trkpt lat="48.96436" lon="2.12387">
        <ele>16.98</ele>
        <time>2023-04-19T09:39:07Z</time>
      </trkpt>
      <trkpt lat="48.96433" lon="2.12387">
        <ele>17.11</ele>
        <time>2023-04-19T09:39:13Z</time>
      </trkpt>
      <trkpt lat="48.96405" lon="2.12405">
        <ele>17.01</ele>
        <time>2023-04-19T09:39:29Z</time>
      </trkpt>
      <trkpt lat="48.96379" lon="2.12424">
        <ele>16.7</ele>
        <time>2023-04-19T09:39:47Z</time>
      </trkpt>
      <trkpt lat="48.96364" lon="2.12437">
        <ele>16.22</ele>
        <time>2023-04-19T09:39:57Z</time>
      </trkpt>
      <trkpt lat="48.96347" lon="2.12457">
        <ele>15.99</ele>
        <time>2023-04-19T09:40:13Z</time>
      </trkpt>
      <trkpt lat="48.96328" lon="2.12473">
        <ele>15.55</ele>
        <time>2023-04-19T09:40:29Z</time>
      </trkpt>
      <trkpt lat="48.96307" lon="2.1249">
        <ele>15.96</ele>
        <time>2023-04-19T09:40:47Z</time>
      </trkpt>
      <trkpt lat="48.963" lon="2.125">
        <ele>15.77</ele>
        <time>2023-04-19T09:40:59Z</time>
      </trkpt>
      <trkpt lat="48.96275" lon="2.12525">
        <ele>15.39</ele>
        <time>2023-04-19T09:41:16Z</time>
      </trkpt>
      <trkpt lat="48.96252" lon="2.12551">
        <ele>15.1</ele>
        <time>2023-04-19T09:41:32Z</time>
      </trkpt>
      <trkpt lat="48.96236" lon="2.12573">
        <ele>15.18</ele>
        <time>2023-04-19T09:41:48Z</time>
      </trkpt>
      <trkpt lat="48.96218" lon="2.12596">
        <ele>15.02</ele>
        <time>2023-04-19T09:42:02Z</time>
      </trkpt>
      <trkpt lat="48.96206" lon="2.12611">
        <ele>15.21</ele>
        <time>2023-04-19T09:42:17Z</time>
      </trkpt>
      <trkpt lat="48.96192" lon="2.12629">
        <ele>14.69</ele>
        <time>2023-04-19T09:42:33Z</time>
      </trkpt>
      <trkpt lat="48.96184" lon="2.1265">
        <ele>14.06</ele>
        <time>2023-04-19T09:42:48Z</time>
      </trkpt>
      <trkpt lat="48.96183" lon="2.12654">
        <ele>14.51</ele>
        <time>2023-04-19T09:42:50Z</time>
      </trkpt>
      <trkpt lat="48.96162" lon="2.12692">
        <ele>14.1</ele>
        <time>2023-04-19T09:43:05Z</time>
      </trkpt>
      <trkpt lat="48.96146" lon="2.12715">
        <ele>12.94</ele>
        <time>2023-04-19T09:43:18Z</time>
      </trkpt>
      <trkpt lat="48.96139" lon="2.12749">
        <ele>13.71</ele>
        <time>2023-04-19T09:43:34Z</time>
      </trkpt>
      <trkpt lat="48.96136" lon="2.12777">
        <ele>12.94</ele>
        <time>2023-04-19T09:43:49Z</time>
      </trkpt>
      <trkpt lat="48.96127" lon="2.12794">
        <ele>13.74</ele>
        <time>2023-04-19T09:44:03Z</time>
      </trkpt>
    </trkseg>
  </trk>
</gpx>